<?xml version="1.0" encoding="UTF-8" standalone="no" ?>
<gpx xmlns="http://www.topografix.com/GPX/1/1" xmlns:xsi="http://www.w3.org/2001/XMLSchema-instance" xsi:schemaLocation="http://www.topografix.com/GPX/1/1 http://www.topografix.com/GPX/1/1/gpx.xsd" version="1.1" creator="VisuGPX - https://www.visugpx.com">
  <metadata>
    <name>L\'Omi Agut - SKR</name>
    <desc><![CDATA[Rando ski à l\'Omi Agut 1835 m au déaprt du col des Bordères]]></desc>
  </metadata>
  <trk>
    <name><![CDATA[TracA- actuel- 29 JAN 2013 09-24]]></name>
    <trkseg>
      <trkpt lat="42.9516" lon="-0.19581">
        <ele>1160.45</ele>
        <time>2013-01-29T08:36:59Z</time>
      </trkpt>
      <trkpt lat="42.95167" lon="-0.19585">
        <ele>1160.93</ele>
        <time>2013-01-29T08:37:03Z</time>
      </trkpt>
      <trkpt lat="42.95165" lon="-0.19611">
        <ele>1159.49</ele>
        <time>2013-01-29T08:37:17Z</time>
      </trkpt>
      <trkpt lat="42.95163" lon="-0.1962">
        <ele>1159.49</ele>
        <time>2013-01-29T08:37:31Z</time>
      </trkpt>
      <trkpt lat="42.95158" lon="-0.19632">
        <ele>1159.01</ele>
        <time>2013-01-29T08:37:43Z</time>
      </trkpt>
      <trkpt lat="42.95157" lon="-0.19635">
        <ele>1159.49</ele>
        <time>2013-01-29T08:37:55Z</time>
      </trkpt>
      <trkpt lat="42.95155" lon="-0.19641">
        <ele>1159.49</ele>
        <time>2013-01-29T08:38:09Z</time>
      </trkpt>
      <trkpt lat="42.95155" lon="-0.19644">
        <ele>1158.53</ele>
        <time>2013-01-29T08:38:22Z</time>
      </trkpt>
      <trkpt lat="42.95155" lon="-0.19644">
        <ele>1159.01</ele>
        <time>2013-01-29T08:38:25Z</time>
      </trkpt>
      <trkpt lat="42.9515" lon="-0.19656">
        <ele>1159.01</ele>
        <time>2013-01-29T08:38:36Z</time>
      </trkpt>
      <trkpt lat="42.95143" lon="-0.19674">
        <ele>1159.49</ele>
        <time>2013-01-29T08:38:49Z</time>
      </trkpt>
      <trkpt lat="42.95139" lon="-0.19684">
        <ele>1160.45</ele>
        <time>2013-01-29T08:38:58Z</time>
      </trkpt>
      <trkpt lat="42.95135" lon="-0.19694">
        <ele>1160.93</ele>
        <time>2013-01-29T08:39:08Z</time>
      </trkpt>
      <trkpt lat="42.95138" lon="-0.19709">
        <ele>1162.85</ele>
        <time>2013-01-29T08:39:21Z</time>
      </trkpt>
      <trkpt lat="42.9514" lon="-0.19715">
        <ele>1163.33</ele>
        <time>2013-01-29T08:39:27Z</time>
      </trkpt>
      <trkpt lat="42.95139" lon="-0.19724">
        <ele>1164.29</ele>
        <time>2013-01-29T08:39:34Z</time>
      </trkpt>
      <trkpt lat="42.95137" lon="-0.19732">
        <ele>1166.7</ele>
        <time>2013-01-29T08:39:46Z</time>
      </trkpt>
      <trkpt lat="42.95138" lon="-0.19733">
        <ele>1166.7</ele>
        <time>2013-01-29T08:39:48Z</time>
      </trkpt>
      <trkpt lat="42.95145" lon="-0.19741">
        <ele>1169.1</ele>
        <time>2013-01-29T08:40:00Z</time>
      </trkpt>
      <trkpt lat="42.95152" lon="-0.19744">
        <ele>1170.54</ele>
        <time>2013-01-29T08:40:13Z</time>
      </trkpt>
      <trkpt lat="42.95156" lon="-0.19752">
        <ele>1172.95</ele>
        <time>2013-01-29T08:40:25Z</time>
      </trkpt>
      <trkpt lat="42.9516" lon="-0.19763">
        <ele>1175.35</ele>
        <time>2013-01-29T08:40:39Z</time>
      </trkpt>
      <trkpt lat="42.95164" lon="-0.19775">
        <ele>1178.23</ele>
        <time>2013-01-29T08:40:52Z</time>
      </trkpt>
      <trkpt lat="42.95161" lon="-0.19786">
        <ele>1179.67</ele>
        <time>2013-01-29T08:41:04Z</time>
      </trkpt>
      <trkpt lat="42.95155" lon="-0.19799">
        <ele>1181.12</ele>
        <time>2013-01-29T08:41:19Z</time>
      </trkpt>
      <trkpt lat="42.95152" lon="-0.19803">
        <ele>1182.56</ele>
        <time>2013-01-29T08:41:27Z</time>
      </trkpt>
      <trkpt lat="42.95148" lon="-0.19808">
        <ele>1183.04</ele>
        <time>2013-01-29T08:41:34Z</time>
      </trkpt>
      <trkpt lat="42.95138" lon="-0.1981">
        <ele>1185.44</ele>
        <time>2013-01-29T08:41:48Z</time>
      </trkpt>
      <trkpt lat="42.95133" lon="-0.19809">
        <ele>1185.92</ele>
        <time>2013-01-29T08:41:59Z</time>
      </trkpt>
      <trkpt lat="42.95133" lon="-0.19809">
        <ele>1185.92</ele>
        <time>2013-01-29T08:42:10Z</time>
      </trkpt>
      <trkpt lat="42.95132" lon="-0.1981">
        <ele>1186.4</ele>
        <time>2013-01-29T08:42:20Z</time>
      </trkpt>
      <trkpt lat="42.95126" lon="-0.19807">
        <ele>1187.37</ele>
        <time>2013-01-29T08:42:32Z</time>
      </trkpt>
      <trkpt lat="42.95119" lon="-0.19809">
        <ele>1189.77</ele>
        <time>2013-01-29T08:42:45Z</time>
      </trkpt>
      <trkpt lat="42.95118" lon="-0.19819">
        <ele>1192.17</ele>
        <time>2013-01-29T08:42:57Z</time>
      </trkpt>
      <trkpt lat="42.95109" lon="-0.19816">
        <ele>1194.09</ele>
        <time>2013-01-29T08:43:07Z</time>
      </trkpt>
      <trkpt lat="42.951" lon="-0.19814">
        <ele>1195.54</ele>
        <time>2013-01-29T08:43:20Z</time>
      </trkpt>
      <trkpt lat="42.95091" lon="-0.19813">
        <ele>1197.46</ele>
        <time>2013-01-29T08:43:33Z</time>
      </trkpt>
      <trkpt lat="42.95087" lon="-0.19819">
        <ele>1200.34</ele>
        <time>2013-01-29T08:43:46Z</time>
      </trkpt>
      <trkpt lat="42.95088" lon="-0.19832">
        <ele>1202.27</ele>
        <time>2013-01-29T08:44:00Z</time>
      </trkpt>
      <trkpt lat="42.9509" lon="-0.19843">
        <ele>1204.19</ele>
        <time>2013-01-29T08:44:15Z</time>
      </trkpt>
      <trkpt lat="42.95092" lon="-0.19855">
        <ele>1206.59</ele>
        <time>2013-01-29T08:44:27Z</time>
      </trkpt>
      <trkpt lat="42.95092" lon="-0.19866">
        <ele>1209.48</ele>
        <time>2013-01-29T08:44:40Z</time>
      </trkpt>
      <trkpt lat="42.95091" lon="-0.19868">
        <ele>1209.96</ele>
        <time>2013-01-29T08:44:43Z</time>
      </trkpt>
      <trkpt lat="42.95088" lon="-0.19878">
        <ele>1212.84</ele>
        <time>2013-01-29T08:44:55Z</time>
      </trkpt>
      <trkpt lat="42.95083" lon="-0.19886">
        <ele>1214.28</ele>
        <time>2013-01-29T08:45:05Z</time>
      </trkpt>
      <trkpt lat="42.95073" lon="-0.19895">
        <ele>1215.72</ele>
        <time>2013-01-29T08:45:18Z</time>
      </trkpt>
      <trkpt lat="42.95068" lon="-0.199">
        <ele>1216.69</ele>
        <time>2013-01-29T08:45:27Z</time>
      </trkpt>
      <trkpt lat="42.95057" lon="-0.19903">
        <ele>1217.65</ele>
        <time>2013-01-29T08:45:40Z</time>
      </trkpt>
      <trkpt lat="42.95046" lon="-0.19904">
        <ele>1218.13</ele>
        <time>2013-01-29T08:45:53Z</time>
      </trkpt>
      <trkpt lat="42.95034" lon="-0.19906">
        <ele>1219.09</ele>
        <time>2013-01-29T08:46:05Z</time>
      </trkpt>
      <trkpt lat="42.95033" lon="-0.19906">
        <ele>1219.57</ele>
        <time>2013-01-29T08:46:07Z</time>
      </trkpt>
      <trkpt lat="42.95021" lon="-0.19911">
        <ele>1220.53</ele>
        <time>2013-01-29T08:46:21Z</time>
      </trkpt>
      <trkpt lat="42.9501" lon="-0.19915">
        <ele>1221.49</ele>
        <time>2013-01-29T08:46:34Z</time>
      </trkpt>
      <trkpt lat="42.94998" lon="-0.19916">
        <ele>1223.42</ele>
        <time>2013-01-29T08:46:46Z</time>
      </trkpt>
      <trkpt lat="42.94985" lon="-0.19915">
        <ele>1224.86</ele>
        <time>2013-01-29T08:46:59Z</time>
      </trkpt>
      <trkpt lat="42.94982" lon="-0.19915">
        <ele>1224.86</ele>
        <time>2013-01-29T08:47:02Z</time>
      </trkpt>
      <trkpt lat="42.94976" lon="-0.19913">
        <ele>1225.82</ele>
        <time>2013-01-29T08:47:13Z</time>
      </trkpt>
      <trkpt lat="42.94962" lon="-0.1992">
        <ele>1225.82</ele>
        <time>2013-01-29T08:47:28Z</time>
      </trkpt>
      <trkpt lat="42.9495" lon="-0.19926">
        <ele>1224.38</ele>
        <time>2013-01-29T08:47:37Z</time>
      </trkpt>
      <trkpt lat="42.94938" lon="-0.19932">
        <ele>1223.9</ele>
        <time>2013-01-29T08:47:47Z</time>
      </trkpt>
      <trkpt lat="42.94924" lon="-0.19939">
        <ele>1223.42</ele>
        <time>2013-01-29T08:48:00Z</time>
      </trkpt>
      <trkpt lat="42.94916" lon="-0.19947">
        <ele>1223.9</ele>
        <time>2013-01-29T08:48:11Z</time>
      </trkpt>
      <trkpt lat="42.94905" lon="-0.19951">
        <ele>1223.9</ele>
        <time>2013-01-29T08:48:24Z</time>
      </trkpt>
      <trkpt lat="42.94904" lon="-0.19951">
        <ele>1223.9</ele>
        <time>2013-01-29T08:48:25Z</time>
      </trkpt>
      <trkpt lat="42.9489" lon="-0.19956">
        <ele>1223.9</ele>
        <time>2013-01-29T08:48:39Z</time>
      </trkpt>
      <trkpt lat="42.94878" lon="-0.19957">
        <ele>1225.34</ele>
        <time>2013-01-29T08:48:51Z</time>
      </trkpt>
      <trkpt lat="42.94874" lon="-0.19958">
        <ele>1226.3</ele>
        <time>2013-01-29T08:48:55Z</time>
      </trkpt>
      <trkpt lat="42.94872" lon="-0.19959">
        <ele>1225.82</ele>
        <time>2013-01-29T08:48:57Z</time>
      </trkpt>
      <trkpt lat="42.94862" lon="-0.19965">
        <ele>1228.22</ele>
        <time>2013-01-29T08:49:09Z</time>
      </trkpt>
      <trkpt lat="42.94852" lon="-0.19972">
        <ele>1229.18</ele>
        <time>2013-01-29T08:49:20Z</time>
      </trkpt>
      <trkpt lat="42.94848" lon="-0.19975">
        <ele>1229.66</ele>
        <time>2013-01-29T08:49:26Z</time>
      </trkpt>
      <trkpt lat="42.94838" lon="-0.19981">
        <ele>1231.11</ele>
        <time>2013-01-29T08:49:38Z</time>
      </trkpt>
      <trkpt lat="42.9483" lon="-0.19984">
        <ele>1232.07</ele>
        <time>2013-01-29T08:49:49Z</time>
      </trkpt>
      <trkpt lat="42.94829" lon="-0.19985">
        <ele>1233.03</ele>
        <time>2013-01-29T08:49:50Z</time>
      </trkpt>
      <trkpt lat="42.94818" lon="-0.19984">
        <ele>1234.47</ele>
        <time>2013-01-29T08:50:04Z</time>
      </trkpt>
      <trkpt lat="42.94808" lon="-0.1998">
        <ele>1236.87</ele>
        <time>2013-01-29T08:50:17Z</time>
      </trkpt>
      <trkpt lat="42.94799" lon="-0.19976">
        <ele>1238.8</ele>
        <time>2013-01-29T08:50:31Z</time>
      </trkpt>
      <trkpt lat="42.94788" lon="-0.19967">
        <ele>1241.2</ele>
        <time>2013-01-29T08:50:45Z</time>
      </trkpt>
      <trkpt lat="42.94778" lon="-0.1996">
        <ele>1242.16</ele>
        <time>2013-01-29T08:50:57Z</time>
      </trkpt>
      <trkpt lat="42.94772" lon="-0.19954">
        <ele>1243.12</ele>
        <time>2013-01-29T08:51:06Z</time>
      </trkpt>
      <trkpt lat="42.94768" lon="-0.19938">
        <ele>1244.56</ele>
        <time>2013-01-29T08:51:20Z</time>
      </trkpt>
      <trkpt lat="42.94767" lon="-0.19922">
        <ele>1246.01</ele>
        <time>2013-01-29T08:51:36Z</time>
      </trkpt>
      <trkpt lat="42.94758" lon="-0.19907">
        <ele>1248.41</ele>
        <time>2013-01-29T08:51:50Z</time>
      </trkpt>
      <trkpt lat="42.94749" lon="-0.19896">
        <ele>1249.85</ele>
        <time>2013-01-29T08:52:03Z</time>
      </trkpt>
      <trkpt lat="42.94742" lon="-0.1989">
        <ele>1252.25</ele>
        <time>2013-01-29T08:52:17Z</time>
      </trkpt>
      <trkpt lat="42.9474" lon="-0.19889">
        <ele>1251.77</ele>
        <time>2013-01-29T08:52:19Z</time>
      </trkpt>
      <trkpt lat="42.94732" lon="-0.19886">
        <ele>1255.14</ele>
        <time>2013-01-29T08:52:32Z</time>
      </trkpt>
      <trkpt lat="42.94722" lon="-0.19879">
        <ele>1258.02</ele>
        <time>2013-01-29T08:52:45Z</time>
      </trkpt>
      <trkpt lat="42.94715" lon="-0.19871">
        <ele>1260.43</ele>
        <time>2013-01-29T08:52:58Z</time>
      </trkpt>
      <trkpt lat="42.9471" lon="-0.19868">
        <ele>1260.91</ele>
        <time>2013-01-29T08:53:20Z</time>
      </trkpt>
      <trkpt lat="42.94706" lon="-0.19863">
        <ele>1262.35</ele>
        <time>2013-01-29T08:53:34Z</time>
      </trkpt>
      <trkpt lat="42.94698" lon="-0.19857">
        <ele>1265.23</ele>
        <time>2013-01-29T08:53:48Z</time>
      </trkpt>
      <trkpt lat="42.94694" lon="-0.19851">
        <ele>1266.19</ele>
        <time>2013-01-29T08:53:55Z</time>
      </trkpt>
      <trkpt lat="42.94687" lon="-0.19842">
        <ele>1268.6</ele>
        <time>2013-01-29T08:54:07Z</time>
      </trkpt>
      <trkpt lat="42.94686" lon="-0.1984">
        <ele>1269.56</ele>
        <time>2013-01-29T08:54:10Z</time>
      </trkpt>
      <trkpt lat="42.94678" lon="-0.19841">
        <ele>1271.96</ele>
        <time>2013-01-29T08:54:23Z</time>
      </trkpt>
      <trkpt lat="42.94677" lon="-0.19844">
        <ele>1272.44</ele>
        <time>2013-01-29T08:54:26Z</time>
      </trkpt>
      <trkpt lat="42.94672" lon="-0.19854">
        <ele>1275.81</ele>
        <time>2013-01-29T08:54:39Z</time>
      </trkpt>
      <trkpt lat="42.94664" lon="-0.19862">
        <ele>1277.73</ele>
        <time>2013-01-29T08:54:51Z</time>
      </trkpt>
      <trkpt lat="42.94662" lon="-0.19864">
        <ele>1277.73</ele>
        <time>2013-01-29T08:54:59Z</time>
      </trkpt>
      <trkpt lat="42.94661" lon="-0.19864">
        <ele>1277.73</ele>
        <time>2013-01-29T08:55:01Z</time>
      </trkpt>
      <trkpt lat="42.9466" lon="-0.19881">
        <ele>1279.17</ele>
        <time>2013-01-29T08:55:14Z</time>
      </trkpt>
      <trkpt lat="42.94655" lon="-0.19902">
        <ele>1279.65</ele>
        <time>2013-01-29T08:55:27Z</time>
      </trkpt>
      <trkpt lat="42.94655" lon="-0.19903">
        <ele>1280.61</ele>
        <time>2013-01-29T08:55:28Z</time>
      </trkpt>
      <trkpt lat="42.94646" lon="-0.19922">
        <ele>1280.61</ele>
        <time>2013-01-29T08:55:43Z</time>
      </trkpt>
      <trkpt lat="42.94645" lon="-0.19944">
        <ele>1280.61</ele>
        <time>2013-01-29T08:55:57Z</time>
      </trkpt>
      <trkpt lat="42.94645" lon="-0.19948">
        <ele>1281.09</ele>
        <time>2013-01-29T08:56:06Z</time>
      </trkpt>
      <trkpt lat="42.94635" lon="-0.19948">
        <ele>1283.02</ele>
        <time>2013-01-29T08:56:17Z</time>
      </trkpt>
      <trkpt lat="42.94632" lon="-0.19948">
        <ele>1283.98</ele>
        <time>2013-01-29T08:56:21Z</time>
      </trkpt>
      <trkpt lat="42.9462" lon="-0.19947">
        <ele>1285.9</ele>
        <time>2013-01-29T08:56:34Z</time>
      </trkpt>
      <trkpt lat="42.94616" lon="-0.19947">
        <ele>1286.38</ele>
        <time>2013-01-29T08:56:38Z</time>
      </trkpt>
      <trkpt lat="42.9461" lon="-0.19946">
        <ele>1286.86</ele>
        <time>2013-01-29T08:56:44Z</time>
      </trkpt>
      <trkpt lat="42.94598" lon="-0.19944">
        <ele>1288.78</ele>
        <time>2013-01-29T08:56:57Z</time>
      </trkpt>
      <trkpt lat="42.94588" lon="-0.19939">
        <ele>1291.19</ele>
        <time>2013-01-29T08:57:09Z</time>
      </trkpt>
      <trkpt lat="42.94577" lon="-0.19936">
        <ele>1292.63</ele>
        <time>2013-01-29T08:57:22Z</time>
      </trkpt>
      <trkpt lat="42.94572" lon="-0.19935">
        <ele>1293.11</ele>
        <time>2013-01-29T08:57:29Z</time>
      </trkpt>
      <trkpt lat="42.94569" lon="-0.19932">
        <ele>1293.59</ele>
        <time>2013-01-29T08:57:40Z</time>
      </trkpt>
      <trkpt lat="42.94569" lon="-0.19932">
        <ele>1288.78</ele>
        <time>2013-01-29T08:57:44Z</time>
      </trkpt>
      <trkpt lat="42.94569" lon="-0.19932">
        <ele>1293.11</ele>
        <time>2013-01-29T08:57:46Z</time>
      </trkpt>
      <trkpt lat="42.94569" lon="-0.19932">
        <ele>1292.63</ele>
        <time>2013-01-29T08:57:47Z</time>
      </trkpt>
      <trkpt lat="42.94567" lon="-0.19924">
        <ele>1292.63</ele>
        <time>2013-01-29T08:58:16Z</time>
      </trkpt>
      <trkpt lat="42.94566" lon="-0.19927">
        <ele>1292.63</ele>
        <time>2013-01-29T08:58:29Z</time>
      </trkpt>
      <trkpt lat="42.94567" lon="-0.19929">
        <ele>1292.63</ele>
        <time>2013-01-29T08:58:30Z</time>
      </trkpt>
      <trkpt lat="42.94568" lon="-0.19934">
        <ele>1294.07</ele>
        <time>2013-01-29T08:58:41Z</time>
      </trkpt>
      <trkpt lat="42.94565" lon="-0.19933">
        <ele>1294.07</ele>
        <time>2013-01-29T08:58:45Z</time>
      </trkpt>
      <trkpt lat="42.94552" lon="-0.19926">
        <ele>1295.99</ele>
        <time>2013-01-29T08:59:00Z</time>
      </trkpt>
      <trkpt lat="42.94543" lon="-0.19922">
        <ele>1297.92</ele>
        <time>2013-01-29T08:59:12Z</time>
      </trkpt>
      <trkpt lat="42.94533" lon="-0.19919">
        <ele>1298.88</ele>
        <time>2013-01-29T08:59:23Z</time>
      </trkpt>
      <trkpt lat="42.94522" lon="-0.1992">
        <ele>1299.84</ele>
        <time>2013-01-29T08:59:35Z</time>
      </trkpt>
      <trkpt lat="42.94513" lon="-0.19925">
        <ele>1301.76</ele>
        <time>2013-01-29T08:59:48Z</time>
      </trkpt>
      <trkpt lat="42.94503" lon="-0.19929">
        <ele>1302.24</ele>
        <time>2013-01-29T08:59:59Z</time>
      </trkpt>
      <trkpt lat="42.94502" lon="-0.19931">
        <ele>1302.24</ele>
        <time>2013-01-29T09:00:01Z</time>
      </trkpt>
      <trkpt lat="42.94501" lon="-0.19937">
        <ele>1302.24</ele>
        <time>2013-01-29T09:00:07Z</time>
      </trkpt>
      <trkpt lat="42.94496" lon="-0.19948">
        <ele>1305.61</ele>
        <time>2013-01-29T09:00:20Z</time>
      </trkpt>
      <trkpt lat="42.9449" lon="-0.19955">
        <ele>1306.57</ele>
        <time>2013-01-29T09:00:33Z</time>
      </trkpt>
      <trkpt lat="42.94486" lon="-0.19957">
        <ele>1309.93</ele>
        <time>2013-01-29T09:00:41Z</time>
      </trkpt>
      <trkpt lat="42.94485" lon="-0.1996">
        <ele>1310.41</ele>
        <time>2013-01-29T09:00:54Z</time>
      </trkpt>
      <trkpt lat="42.94484" lon="-0.19959">
        <ele>1309.93</ele>
        <time>2013-01-29T09:01:19Z</time>
      </trkpt>
      <trkpt lat="42.94483" lon="-0.1996">
        <ele>1310.41</ele>
        <time>2013-01-29T09:01:46Z</time>
      </trkpt>
      <trkpt lat="42.94481" lon="-0.19963">
        <ele>1311.38</ele>
        <time>2013-01-29T09:01:52Z</time>
      </trkpt>
      <trkpt lat="42.94476" lon="-0.19969">
        <ele>1312.34</ele>
        <time>2013-01-29T09:02:04Z</time>
      </trkpt>
      <trkpt lat="42.94473" lon="-0.19971">
        <ele>1312.82</ele>
        <time>2013-01-29T09:02:10Z</time>
      </trkpt>
      <trkpt lat="42.94463" lon="-0.19978">
        <ele>1315.22</ele>
        <time>2013-01-29T09:02:23Z</time>
      </trkpt>
      <trkpt lat="42.94454" lon="-0.19986">
        <ele>1316.66</ele>
        <time>2013-01-29T09:02:37Z</time>
      </trkpt>
      <trkpt lat="42.94443" lon="-0.19995">
        <ele>1318.1</ele>
        <time>2013-01-29T09:02:50Z</time>
      </trkpt>
      <trkpt lat="42.94436" lon="-0.2">
        <ele>1319.55</ele>
        <time>2013-01-29T09:03:00Z</time>
      </trkpt>
      <trkpt lat="42.94424" lon="-0.20011">
        <ele>1320.51</ele>
        <time>2013-01-29T09:03:13Z</time>
      </trkpt>
      <trkpt lat="42.94415" lon="-0.20019">
        <ele>1322.43</ele>
        <time>2013-01-29T09:03:25Z</time>
      </trkpt>
      <trkpt lat="42.94407" lon="-0.20028">
        <ele>1324.35</ele>
        <time>2013-01-29T09:03:38Z</time>
      </trkpt>
      <trkpt lat="42.94398" lon="-0.20037">
        <ele>1325.8</ele>
        <time>2013-01-29T09:03:51Z</time>
      </trkpt>
      <trkpt lat="42.94393" lon="-0.20044">
        <ele>1327.24</ele>
        <time>2013-01-29T09:04:02Z</time>
      </trkpt>
      <trkpt lat="42.94386" lon="-0.20051">
        <ele>1329.16</ele>
        <time>2013-01-29T09:04:14Z</time>
      </trkpt>
      <trkpt lat="42.94381" lon="-0.20056">
        <ele>1330.12</ele>
        <time>2013-01-29T09:04:23Z</time>
      </trkpt>
      <trkpt lat="42.94374" lon="-0.20067">
        <ele>1332.04</ele>
        <time>2013-01-29T09:04:37Z</time>
      </trkpt>
      <trkpt lat="42.9437" lon="-0.20074">
        <ele>1333.49</ele>
        <time>2013-01-29T09:04:48Z</time>
      </trkpt>
      <trkpt lat="42.94366" lon="-0.2008">
        <ele>1334.93</ele>
        <time>2013-01-29T09:04:59Z</time>
      </trkpt>
      <trkpt lat="42.94356" lon="-0.2008">
        <ele>1336.85</ele>
        <time>2013-01-29T09:05:10Z</time>
      </trkpt>
      <trkpt lat="42.94353" lon="-0.20079">
        <ele>1337.81</ele>
        <time>2013-01-29T09:05:17Z</time>
      </trkpt>
      <trkpt lat="42.94349" lon="-0.20082">
        <ele>1339.73</ele>
        <time>2013-01-29T09:05:25Z</time>
      </trkpt>
      <trkpt lat="42.94345" lon="-0.20094">
        <ele>1341.66</ele>
        <time>2013-01-29T09:05:37Z</time>
      </trkpt>
      <trkpt lat="42.9434" lon="-0.20103">
        <ele>1343.58</ele>
        <time>2013-01-29T09:05:50Z</time>
      </trkpt>
      <trkpt lat="42.94335" lon="-0.20113">
        <ele>1346.46</ele>
        <time>2013-01-29T09:06:04Z</time>
      </trkpt>
      <trkpt lat="42.9433" lon="-0.20121">
        <ele>1348.87</ele>
        <time>2013-01-29T09:06:16Z</time>
      </trkpt>
      <trkpt lat="42.94329" lon="-0.20122">
        <ele>1348.87</ele>
        <time>2013-01-29T09:06:17Z</time>
      </trkpt>
      <trkpt lat="42.94323" lon="-0.20129">
        <ele>1351.75</ele>
        <time>2013-01-29T09:06:29Z</time>
      </trkpt>
      <trkpt lat="42.94318" lon="-0.20134">
        <ele>1353.19</ele>
        <time>2013-01-29T09:06:38Z</time>
      </trkpt>
      <trkpt lat="42.94305" lon="-0.20129">
        <ele>1355.6</ele>
        <time>2013-01-29T09:06:54Z</time>
      </trkpt>
      <trkpt lat="42.94297" lon="-0.20127">
        <ele>1358.96</ele>
        <time>2013-01-29T09:07:08Z</time>
      </trkpt>
      <trkpt lat="42.94288" lon="-0.20125">
        <ele>1360.88</ele>
        <time>2013-01-29T09:07:20Z</time>
      </trkpt>
      <trkpt lat="42.94287" lon="-0.20124">
        <ele>1361.36</ele>
        <time>2013-01-29T09:07:23Z</time>
      </trkpt>
      <trkpt lat="42.94276" lon="-0.20119">
        <ele>1362.81</ele>
        <time>2013-01-29T09:07:37Z</time>
      </trkpt>
      <trkpt lat="42.94265" lon="-0.20117">
        <ele>1365.21</ele>
        <time>2013-01-29T09:07:53Z</time>
      </trkpt>
      <trkpt lat="42.94255" lon="-0.20112">
        <ele>1367.13</ele>
        <time>2013-01-29T09:08:07Z</time>
      </trkpt>
      <trkpt lat="42.94247" lon="-0.20106">
        <ele>1368.09</ele>
        <time>2013-01-29T09:08:20Z</time>
      </trkpt>
      <trkpt lat="42.94237" lon="-0.20099">
        <ele>1370.5</ele>
        <time>2013-01-29T09:08:33Z</time>
      </trkpt>
      <trkpt lat="42.94227" lon="-0.20095">
        <ele>1372.9</ele>
        <time>2013-01-29T09:08:49Z</time>
      </trkpt>
      <trkpt lat="42.94225" lon="-0.20093">
        <ele>1373.86</ele>
        <time>2013-01-29T09:08:54Z</time>
      </trkpt>
      <trkpt lat="42.94215" lon="-0.20088">
        <ele>1376.26</ele>
        <time>2013-01-29T09:09:09Z</time>
      </trkpt>
      <trkpt lat="42.94206" lon="-0.20083">
        <ele>1378.67</ele>
        <time>2013-01-29T09:09:22Z</time>
      </trkpt>
      <trkpt lat="42.94203" lon="-0.20082">
        <ele>1379.15</ele>
        <time>2013-01-29T09:09:25Z</time>
      </trkpt>
      <trkpt lat="42.942" lon="-0.20083">
        <ele>1380.11</ele>
        <time>2013-01-29T09:09:30Z</time>
      </trkpt>
      <trkpt lat="42.94199" lon="-0.2009">
        <ele>1381.55</ele>
        <time>2013-01-29T09:09:37Z</time>
      </trkpt>
      <trkpt lat="42.94194" lon="-0.20091">
        <ele>1382.99</ele>
        <time>2013-01-29T09:09:48Z</time>
      </trkpt>
      <trkpt lat="42.94187" lon="-0.20078">
        <ele>1385.88</ele>
        <time>2013-01-29T09:10:03Z</time>
      </trkpt>
      <trkpt lat="42.94184" lon="-0.20069">
        <ele>1388.28</ele>
        <time>2013-01-29T09:10:17Z</time>
      </trkpt>
      <trkpt lat="42.94183" lon="-0.20066">
        <ele>1388.76</ele>
        <time>2013-01-29T09:10:20Z</time>
      </trkpt>
      <trkpt lat="42.94178" lon="-0.20053">
        <ele>1391.17</ele>
        <time>2013-01-29T09:10:33Z</time>
      </trkpt>
      <trkpt lat="42.94178" lon="-0.20052">
        <ele>1391.65</ele>
        <time>2013-01-29T09:10:34Z</time>
      </trkpt>
      <trkpt lat="42.9417" lon="-0.20045">
        <ele>1394.05</ele>
        <time>2013-01-29T09:10:48Z</time>
      </trkpt>
      <trkpt lat="42.94163" lon="-0.2004">
        <ele>1395.97</ele>
        <time>2013-01-29T09:11:01Z</time>
      </trkpt>
      <trkpt lat="42.94154" lon="-0.20035">
        <ele>1397.41</ele>
        <time>2013-01-29T09:11:16Z</time>
      </trkpt>
      <trkpt lat="42.94147" lon="-0.2003">
        <ele>1399.34</ele>
        <time>2013-01-29T09:11:28Z</time>
      </trkpt>
      <trkpt lat="42.9414" lon="-0.2003">
        <ele>1402.22</ele>
        <time>2013-01-29T09:11:41Z</time>
      </trkpt>
      <trkpt lat="42.94139" lon="-0.2004">
        <ele>1404.14</ele>
        <time>2013-01-29T09:11:53Z</time>
      </trkpt>
      <trkpt lat="42.94139" lon="-0.20041">
        <ele>1404.14</ele>
        <time>2013-01-29T09:11:54Z</time>
      </trkpt>
      <trkpt lat="42.94138" lon="-0.20049">
        <ele>1405.58</ele>
        <time>2013-01-29T09:12:02Z</time>
      </trkpt>
      <trkpt lat="42.94137" lon="-0.20062">
        <ele>1407.51</ele>
        <time>2013-01-29T09:12:15Z</time>
      </trkpt>
      <trkpt lat="42.94137" lon="-0.20066">
        <ele>1408.47</ele>
        <time>2013-01-29T09:12:21Z</time>
      </trkpt>
      <trkpt lat="42.94132" lon="-0.2006">
        <ele>1409.91</ele>
        <time>2013-01-29T09:12:30Z</time>
      </trkpt>
      <trkpt lat="42.94127" lon="-0.20053">
        <ele>1412.31</ele>
        <time>2013-01-29T09:12:43Z</time>
      </trkpt>
      <trkpt lat="42.9412" lon="-0.20043">
        <ele>1415.2</ele>
        <time>2013-01-29T09:12:59Z</time>
      </trkpt>
      <trkpt lat="42.94115" lon="-0.20031">
        <ele>1417.12</ele>
        <time>2013-01-29T09:13:13Z</time>
      </trkpt>
      <trkpt lat="42.94109" lon="-0.20021">
        <ele>1419.52</ele>
        <time>2013-01-29T09:13:24Z</time>
      </trkpt>
      <trkpt lat="42.94107" lon="-0.20017">
        <ele>1419.52</ele>
        <time>2013-01-29T09:13:29Z</time>
      </trkpt>
      <trkpt lat="42.94101" lon="-0.20007">
        <ele>1421.93</ele>
        <time>2013-01-29T09:13:43Z</time>
      </trkpt>
      <trkpt lat="42.94101" lon="-0.20007">
        <ele>1422.41</ele>
        <time>2013-01-29T09:13:44Z</time>
      </trkpt>
      <trkpt lat="42.94095" lon="-0.19997">
        <ele>1424.33</ele>
        <time>2013-01-29T09:13:57Z</time>
      </trkpt>
      <trkpt lat="42.94088" lon="-0.19985">
        <ele>1425.29</ele>
        <time>2013-01-29T09:14:10Z</time>
      </trkpt>
      <trkpt lat="42.94082" lon="-0.19976">
        <ele>1426.73</ele>
        <time>2013-01-29T09:14:22Z</time>
      </trkpt>
      <trkpt lat="42.94075" lon="-0.19969">
        <ele>1428.66</ele>
        <time>2013-01-29T09:14:33Z</time>
      </trkpt>
      <trkpt lat="42.94073" lon="-0.19966">
        <ele>1429.14</ele>
        <time>2013-01-29T09:14:37Z</time>
      </trkpt>
      <trkpt lat="42.9407" lon="-0.1996">
        <ele>1429.62</ele>
        <time>2013-01-29T09:14:43Z</time>
      </trkpt>
      <trkpt lat="42.94063" lon="-0.1995">
        <ele>1432.02</ele>
        <time>2013-01-29T09:14:56Z</time>
      </trkpt>
      <trkpt lat="42.9406" lon="-0.19946">
        <ele>1431.54</ele>
        <time>2013-01-29T09:15:01Z</time>
      </trkpt>
      <trkpt lat="42.9405" lon="-0.19937">
        <ele>1432.98</ele>
        <time>2013-01-29T09:15:15Z</time>
      </trkpt>
      <trkpt lat="42.94043" lon="-0.19931">
        <ele>1434.91</ele>
        <time>2013-01-29T09:15:27Z</time>
      </trkpt>
      <trkpt lat="42.94042" lon="-0.19931">
        <ele>1433.46</ele>
        <time>2013-01-29T09:15:32Z</time>
      </trkpt>
      <trkpt lat="42.94043" lon="-0.1993">
        <ele>1434.42</ele>
        <time>2013-01-29T09:15:56Z</time>
      </trkpt>
      <trkpt lat="42.94044" lon="-0.19931">
        <ele>1435.39</ele>
        <time>2013-01-29T09:16:13Z</time>
      </trkpt>
      <trkpt lat="42.94043" lon="-0.19932">
        <ele>1434.91</ele>
        <time>2013-01-29T09:16:31Z</time>
      </trkpt>
      <trkpt lat="42.94044" lon="-0.19931">
        <ele>1435.39</ele>
        <time>2013-01-29T09:16:41Z</time>
      </trkpt>
      <trkpt lat="42.94041" lon="-0.1993">
        <ele>1435.87</ele>
        <time>2013-01-29T09:16:44Z</time>
      </trkpt>
      <trkpt lat="42.94031" lon="-0.19927">
        <ele>1438.27</ele>
        <time>2013-01-29T09:16:56Z</time>
      </trkpt>
      <trkpt lat="42.94022" lon="-0.19925">
        <ele>1440.67</ele>
        <time>2013-01-29T09:17:07Z</time>
      </trkpt>
      <trkpt lat="42.94018" lon="-0.19926">
        <ele>1441.63</ele>
        <time>2013-01-29T09:17:13Z</time>
      </trkpt>
      <trkpt lat="42.94008" lon="-0.1993">
        <ele>1443.56</ele>
        <time>2013-01-29T09:17:27Z</time>
      </trkpt>
      <trkpt lat="42.93995" lon="-0.19934">
        <ele>1444.52</ele>
        <time>2013-01-29T09:17:41Z</time>
      </trkpt>
      <trkpt lat="42.93985" lon="-0.19938">
        <ele>1445.96</ele>
        <time>2013-01-29T09:17:55Z</time>
      </trkpt>
      <trkpt lat="42.93973" lon="-0.19942">
        <ele>1445.96</ele>
        <time>2013-01-29T09:18:09Z</time>
      </trkpt>
      <trkpt lat="42.9396" lon="-0.19946">
        <ele>1447.88</ele>
        <time>2013-01-29T09:18:24Z</time>
      </trkpt>
      <trkpt lat="42.93945" lon="-0.1995">
        <ele>1449.32</ele>
        <time>2013-01-29T09:18:40Z</time>
      </trkpt>
      <trkpt lat="42.93933" lon="-0.19952">
        <ele>1449.32</ele>
        <time>2013-01-29T09:18:53Z</time>
      </trkpt>
      <trkpt lat="42.93923" lon="-0.19952">
        <ele>1449.32</ele>
        <time>2013-01-29T09:19:05Z</time>
      </trkpt>
      <trkpt lat="42.93916" lon="-0.19949">
        <ele>1451.73</ele>
        <time>2013-01-29T09:19:18Z</time>
      </trkpt>
      <trkpt lat="42.93906" lon="-0.19944">
        <ele>1453.17</ele>
        <time>2013-01-29T09:19:32Z</time>
      </trkpt>
      <trkpt lat="42.93901" lon="-0.19941">
        <ele>1454.61</ele>
        <time>2013-01-29T09:19:39Z</time>
      </trkpt>
      <trkpt lat="42.93897" lon="-0.19938">
        <ele>1455.09</ele>
        <time>2013-01-29T09:19:53Z</time>
      </trkpt>
      <trkpt lat="42.93893" lon="-0.19933">
        <ele>1457.5</ele>
        <time>2013-01-29T09:20:06Z</time>
      </trkpt>
      <trkpt lat="42.93884" lon="-0.19929">
        <ele>1460.38</ele>
        <time>2013-01-29T09:20:20Z</time>
      </trkpt>
      <trkpt lat="42.93883" lon="-0.19928">
        <ele>1461.34</ele>
        <time>2013-01-29T09:20:22Z</time>
      </trkpt>
      <trkpt lat="42.9388" lon="-0.19928">
        <ele>1461.82</ele>
        <time>2013-01-29T09:20:27Z</time>
      </trkpt>
      <trkpt lat="42.93872" lon="-0.19924">
        <ele>1463.26</ele>
        <time>2013-01-29T09:20:40Z</time>
      </trkpt>
      <trkpt lat="42.9387" lon="-0.19922">
        <ele>1464.23</ele>
        <time>2013-01-29T09:20:44Z</time>
      </trkpt>
      <trkpt lat="42.93867" lon="-0.19921">
        <ele>1464.71</ele>
        <time>2013-01-29T09:20:48Z</time>
      </trkpt>
      <trkpt lat="42.93865" lon="-0.19919">
        <ele>1465.19</ele>
        <time>2013-01-29T09:20:53Z</time>
      </trkpt>
      <trkpt lat="42.93859" lon="-0.1991">
        <ele>1467.11</ele>
        <time>2013-01-29T09:21:07Z</time>
      </trkpt>
      <trkpt lat="42.93854" lon="-0.19903">
        <ele>1469.99</ele>
        <time>2013-01-29T09:21:20Z</time>
      </trkpt>
      <trkpt lat="42.93848" lon="-0.19894">
        <ele>1471.44</ele>
        <time>2013-01-29T09:21:32Z</time>
      </trkpt>
      <trkpt lat="42.93843" lon="-0.19888">
        <ele>1474.8</ele>
        <time>2013-01-29T09:21:45Z</time>
      </trkpt>
      <trkpt lat="42.93837" lon="-0.19878">
        <ele>1475.76</ele>
        <time>2013-01-29T09:21:58Z</time>
      </trkpt>
      <trkpt lat="42.93835" lon="-0.19874">
        <ele>1477.2</ele>
        <time>2013-01-29T09:22:05Z</time>
      </trkpt>
      <trkpt lat="42.93831" lon="-0.19869">
        <ele>1479.13</ele>
        <time>2013-01-29T09:22:17Z</time>
      </trkpt>
      <trkpt lat="42.93827" lon="-0.19865">
        <ele>1480.57</ele>
        <time>2013-01-29T09:22:29Z</time>
      </trkpt>
      <trkpt lat="42.93824" lon="-0.19873">
        <ele>1482.01</ele>
        <time>2013-01-29T09:22:40Z</time>
      </trkpt>
      <trkpt lat="42.93824" lon="-0.19884">
        <ele>1484.41</ele>
        <time>2013-01-29T09:22:56Z</time>
      </trkpt>
      <trkpt lat="42.93824" lon="-0.19889">
        <ele>1485.37</ele>
        <time>2013-01-29T09:23:06Z</time>
      </trkpt>
      <trkpt lat="42.93822" lon="-0.19883">
        <ele>1486.82</ele>
        <time>2013-01-29T09:23:17Z</time>
      </trkpt>
      <trkpt lat="42.93817" lon="-0.19874">
        <ele>1489.22</ele>
        <time>2013-01-29T09:23:28Z</time>
      </trkpt>
      <trkpt lat="42.93811" lon="-0.19866">
        <ele>1491.14</ele>
        <time>2013-01-29T09:23:42Z</time>
      </trkpt>
      <trkpt lat="42.93811" lon="-0.19865">
        <ele>1491.14</ele>
        <time>2013-01-29T09:23:43Z</time>
      </trkpt>
      <trkpt lat="42.93808" lon="-0.19859">
        <ele>1492.1</ele>
        <time>2013-01-29T09:23:56Z</time>
      </trkpt>
      <trkpt lat="42.93806" lon="-0.19855">
        <ele>1494.03</ele>
        <time>2013-01-29T09:24:02Z</time>
      </trkpt>
      <trkpt lat="42.938" lon="-0.19848">
        <ele>1495.47</ele>
        <time>2013-01-29T09:24:16Z</time>
      </trkpt>
      <trkpt lat="42.93795" lon="-0.1984">
        <ele>1496.91</ele>
        <time>2013-01-29T09:24:28Z</time>
      </trkpt>
      <trkpt lat="42.93791" lon="-0.19836">
        <ele>1497.39</ele>
        <time>2013-01-29T09:24:34Z</time>
      </trkpt>
      <trkpt lat="42.93786" lon="-0.19831">
        <ele>1498.83</ele>
        <time>2013-01-29T09:24:48Z</time>
      </trkpt>
      <trkpt lat="42.93785" lon="-0.1984">
        <ele>1499.79</ele>
        <time>2013-01-29T09:25:02Z</time>
      </trkpt>
      <trkpt lat="42.93784" lon="-0.19849">
        <ele>1501.72</ele>
        <time>2013-01-29T09:25:16Z</time>
      </trkpt>
      <trkpt lat="42.93785" lon="-0.19859">
        <ele>1504.6</ele>
        <time>2013-01-29T09:25:30Z</time>
      </trkpt>
      <trkpt lat="42.93786" lon="-0.19872">
        <ele>1506.52</ele>
        <time>2013-01-29T09:25:43Z</time>
      </trkpt>
      <trkpt lat="42.93785" lon="-0.19879">
        <ele>1507.48</ele>
        <time>2013-01-29T09:25:56Z</time>
      </trkpt>
      <trkpt lat="42.93785" lon="-0.1989">
        <ele>1508.93</ele>
        <time>2013-01-29T09:26:09Z</time>
      </trkpt>
      <trkpt lat="42.93784" lon="-0.19898">
        <ele>1510.85</ele>
        <time>2013-01-29T09:26:22Z</time>
      </trkpt>
      <trkpt lat="42.93782" lon="-0.19909">
        <ele>1512.77</ele>
        <time>2013-01-29T09:26:35Z</time>
      </trkpt>
      <trkpt lat="42.93781" lon="-0.19917">
        <ele>1514.21</ele>
        <time>2013-01-29T09:26:47Z</time>
      </trkpt>
      <trkpt lat="42.9378" lon="-0.19924">
        <ele>1517.1</ele>
        <time>2013-01-29T09:27:00Z</time>
      </trkpt>
      <trkpt lat="42.93777" lon="-0.19933">
        <ele>1519.02</ele>
        <time>2013-01-29T09:27:12Z</time>
      </trkpt>
      <trkpt lat="42.93774" lon="-0.19937">
        <ele>1520.94</ele>
        <time>2013-01-29T09:27:27Z</time>
      </trkpt>
      <trkpt lat="42.93769" lon="-0.19945">
        <ele>1522.39</ele>
        <time>2013-01-29T09:27:39Z</time>
      </trkpt>
      <trkpt lat="42.93767" lon="-0.1995">
        <ele>1523.83</ele>
        <time>2013-01-29T09:27:47Z</time>
      </trkpt>
      <trkpt lat="42.93765" lon="-0.19953">
        <ele>1525.75</ele>
        <time>2013-01-29T09:28:01Z</time>
      </trkpt>
      <trkpt lat="42.93765" lon="-0.19953">
        <ele>1524.31</ele>
        <time>2013-01-29T09:28:18Z</time>
      </trkpt>
      <trkpt lat="42.93765" lon="-0.19953">
        <ele>1524.31</ele>
        <time>2013-01-29T09:28:35Z</time>
      </trkpt>
      <trkpt lat="42.93761" lon="-0.19945">
        <ele>1525.27</ele>
        <time>2013-01-29T09:28:49Z</time>
      </trkpt>
      <trkpt lat="42.93756" lon="-0.19934">
        <ele>1527.19</ele>
        <time>2013-01-29T09:29:02Z</time>
      </trkpt>
      <trkpt lat="42.93754" lon="-0.19924">
        <ele>1529.11</ele>
        <time>2013-01-29T09:29:13Z</time>
      </trkpt>
      <trkpt lat="42.9375" lon="-0.19914">
        <ele>1531.52</ele>
        <time>2013-01-29T09:29:25Z</time>
      </trkpt>
      <trkpt lat="42.93746" lon="-0.19905">
        <ele>1533.92</ele>
        <time>2013-01-29T09:29:38Z</time>
      </trkpt>
      <trkpt lat="42.93745" lon="-0.19902">
        <ele>1534.88</ele>
        <time>2013-01-29T09:29:42Z</time>
      </trkpt>
      <trkpt lat="42.93739" lon="-0.19893">
        <ele>1536.32</ele>
        <time>2013-01-29T09:29:56Z</time>
      </trkpt>
      <trkpt lat="42.93734" lon="-0.19885">
        <ele>1537.29</ele>
        <time>2013-01-29T09:30:07Z</time>
      </trkpt>
      <trkpt lat="42.93731" lon="-0.19879">
        <ele>1538.73</ele>
        <time>2013-01-29T09:30:19Z</time>
      </trkpt>
      <trkpt lat="42.93725" lon="-0.19871">
        <ele>1540.65</ele>
        <time>2013-01-29T09:30:32Z</time>
      </trkpt>
      <trkpt lat="42.9372" lon="-0.19863">
        <ele>1543.05</ele>
        <time>2013-01-29T09:30:45Z</time>
      </trkpt>
      <trkpt lat="42.93716" lon="-0.19857">
        <ele>1544.5</ele>
        <time>2013-01-29T09:30:57Z</time>
      </trkpt>
      <trkpt lat="42.93715" lon="-0.19855">
        <ele>1544.01</ele>
        <time>2013-01-29T09:31:11Z</time>
      </trkpt>
      <trkpt lat="42.93709" lon="-0.19849">
        <ele>1545.94</ele>
        <time>2013-01-29T09:31:25Z</time>
      </trkpt>
      <trkpt lat="42.93703" lon="-0.19841">
        <ele>1547.38</ele>
        <time>2013-01-29T09:31:37Z</time>
      </trkpt>
      <trkpt lat="42.93698" lon="-0.1983">
        <ele>1548.82</ele>
        <time>2013-01-29T09:31:50Z</time>
      </trkpt>
      <trkpt lat="42.93693" lon="-0.19828">
        <ele>1549.78</ele>
        <time>2013-01-29T09:32:03Z</time>
      </trkpt>
      <trkpt lat="42.93694" lon="-0.19837">
        <ele>1551.22</ele>
        <time>2013-01-29T09:32:14Z</time>
      </trkpt>
      <trkpt lat="42.93694" lon="-0.19847">
        <ele>1553.15</ele>
        <time>2013-01-29T09:32:25Z</time>
      </trkpt>
      <trkpt lat="42.93694" lon="-0.19859">
        <ele>1555.07</ele>
        <time>2013-01-29T09:32:39Z</time>
      </trkpt>
      <trkpt lat="42.93694" lon="-0.19869">
        <ele>1557.47</ele>
        <time>2013-01-29T09:32:52Z</time>
      </trkpt>
      <trkpt lat="42.93694" lon="-0.19876">
        <ele>1558.43</ele>
        <time>2013-01-29T09:33:05Z</time>
      </trkpt>
      <trkpt lat="42.93693" lon="-0.19883">
        <ele>1558.92</ele>
        <time>2013-01-29T09:33:17Z</time>
      </trkpt>
      <trkpt lat="42.93692" lon="-0.19892">
        <ele>1561.32</ele>
        <time>2013-01-29T09:33:29Z</time>
      </trkpt>
      <trkpt lat="42.93691" lon="-0.19904">
        <ele>1563.24</ele>
        <time>2013-01-29T09:33:42Z</time>
      </trkpt>
      <trkpt lat="42.93691" lon="-0.19911">
        <ele>1564.68</ele>
        <time>2013-01-29T09:33:56Z</time>
      </trkpt>
      <trkpt lat="42.93691" lon="-0.19912">
        <ele>1564.2</ele>
        <time>2013-01-29T09:34:07Z</time>
      </trkpt>
      <trkpt lat="42.93688" lon="-0.19905">
        <ele>1565.16</ele>
        <time>2013-01-29T09:34:16Z</time>
      </trkpt>
      <trkpt lat="42.93682" lon="-0.19895">
        <ele>1567.09</ele>
        <time>2013-01-29T09:34:31Z</time>
      </trkpt>
      <trkpt lat="42.93677" lon="-0.19886">
        <ele>1569.01</ele>
        <time>2013-01-29T09:34:45Z</time>
      </trkpt>
      <trkpt lat="42.93673" lon="-0.19878">
        <ele>1569.97</ele>
        <time>2013-01-29T09:34:57Z</time>
      </trkpt>
      <trkpt lat="42.93666" lon="-0.19869">
        <ele>1571.89</ele>
        <time>2013-01-29T09:35:11Z</time>
      </trkpt>
      <trkpt lat="42.93659" lon="-0.1986">
        <ele>1573.33</ele>
        <time>2013-01-29T09:35:24Z</time>
      </trkpt>
      <trkpt lat="42.93654" lon="-0.19853">
        <ele>1574.78</ele>
        <time>2013-01-29T09:35:36Z</time>
      </trkpt>
      <trkpt lat="42.93651" lon="-0.19848">
        <ele>1576.22</ele>
        <time>2013-01-29T09:35:48Z</time>
      </trkpt>
      <trkpt lat="42.9365" lon="-0.1985">
        <ele>1576.22</ele>
        <time>2013-01-29T09:35:59Z</time>
      </trkpt>
      <trkpt lat="42.9365" lon="-0.19862">
        <ele>1578.62</ele>
        <time>2013-01-29T09:36:12Z</time>
      </trkpt>
      <trkpt lat="42.93649" lon="-0.19874">
        <ele>1581.03</ele>
        <time>2013-01-29T09:36:26Z</time>
      </trkpt>
      <trkpt lat="42.93648" lon="-0.19884">
        <ele>1582.47</ele>
        <time>2013-01-29T09:36:39Z</time>
      </trkpt>
      <trkpt lat="42.93646" lon="-0.19897">
        <ele>1584.87</ele>
        <time>2013-01-29T09:36:53Z</time>
      </trkpt>
      <trkpt lat="42.93644" lon="-0.1991">
        <ele>1587.27</ele>
        <time>2013-01-29T09:37:06Z</time>
      </trkpt>
      <trkpt lat="42.93642" lon="-0.1992">
        <ele>1589.68</ele>
        <time>2013-01-29T09:37:19Z</time>
      </trkpt>
      <trkpt lat="42.9364" lon="-0.19931">
        <ele>1591.12</ele>
        <time>2013-01-29T09:37:32Z</time>
      </trkpt>
      <trkpt lat="42.9364" lon="-0.19928">
        <ele>1591.6</ele>
        <time>2013-01-29T09:37:51Z</time>
      </trkpt>
      <trkpt lat="42.9364" lon="-0.19931">
        <ele>1591.12</ele>
        <time>2013-01-29T09:38:06Z</time>
      </trkpt>
      <trkpt lat="42.93641" lon="-0.19929">
        <ele>1590.64</ele>
        <time>2013-01-29T09:38:33Z</time>
      </trkpt>
      <trkpt lat="42.93639" lon="-0.19931">
        <ele>1591.12</ele>
        <time>2013-01-29T09:38:58Z</time>
      </trkpt>
      <trkpt lat="42.93639" lon="-0.19932">
        <ele>1591.12</ele>
        <time>2013-01-29T09:39:27Z</time>
      </trkpt>
      <trkpt lat="42.93639" lon="-0.19931">
        <ele>1591.6</ele>
        <time>2013-01-29T09:39:56Z</time>
      </trkpt>
      <trkpt lat="42.93639" lon="-0.1993">
        <ele>1591.6</ele>
        <time>2013-01-29T09:40:12Z</time>
      </trkpt>
      <trkpt lat="42.9364" lon="-0.19931">
        <ele>1592.56</ele>
        <time>2013-01-29T09:40:25Z</time>
      </trkpt>
      <trkpt lat="42.93639" lon="-0.19933">
        <ele>1593.04</ele>
        <time>2013-01-29T09:40:34Z</time>
      </trkpt>
      <trkpt lat="42.93638" lon="-0.19942">
        <ele>1594.96</ele>
        <time>2013-01-29T09:40:46Z</time>
      </trkpt>
      <trkpt lat="42.93636" lon="-0.19954">
        <ele>1597.37</ele>
        <time>2013-01-29T09:40:59Z</time>
      </trkpt>
      <trkpt lat="42.93636" lon="-0.19964">
        <ele>1599.29</ele>
        <time>2013-01-29T09:41:12Z</time>
      </trkpt>
      <trkpt lat="42.93636" lon="-0.19977">
        <ele>1601.21</ele>
        <time>2013-01-29T09:41:25Z</time>
      </trkpt>
      <trkpt lat="42.93635" lon="-0.19986">
        <ele>1602.66</ele>
        <time>2013-01-29T09:41:37Z</time>
      </trkpt>
      <trkpt lat="42.93635" lon="-0.19996">
        <ele>1603.62</ele>
        <time>2013-01-29T09:41:48Z</time>
      </trkpt>
      <trkpt lat="42.93635" lon="-0.20005">
        <ele>1605.06</ele>
        <time>2013-01-29T09:42:01Z</time>
      </trkpt>
      <trkpt lat="42.93636" lon="-0.20014">
        <ele>1606.02</ele>
        <time>2013-01-29T09:42:14Z</time>
      </trkpt>
      <trkpt lat="42.93636" lon="-0.20021">
        <ele>1607.46</ele>
        <time>2013-01-29T09:42:26Z</time>
      </trkpt>
      <trkpt lat="42.93636" lon="-0.20028">
        <ele>1609.38</ele>
        <time>2013-01-29T09:42:38Z</time>
      </trkpt>
      <trkpt lat="42.93636" lon="-0.20036">
        <ele>1611.31</ele>
        <time>2013-01-29T09:42:51Z</time>
      </trkpt>
      <trkpt lat="42.9364" lon="-0.20048">
        <ele>1613.23</ele>
        <time>2013-01-29T09:43:06Z</time>
      </trkpt>
      <trkpt lat="42.93642" lon="-0.20058">
        <ele>1615.63</ele>
        <time>2013-01-29T09:43:21Z</time>
      </trkpt>
      <trkpt lat="42.93646" lon="-0.20066">
        <ele>1616.59</ele>
        <time>2013-01-29T09:43:34Z</time>
      </trkpt>
      <trkpt lat="42.93647" lon="-0.20069">
        <ele>1617.07</ele>
        <time>2013-01-29T09:43:38Z</time>
      </trkpt>
      <trkpt lat="42.93651" lon="-0.20075">
        <ele>1618.52</ele>
        <time>2013-01-29T09:43:51Z</time>
      </trkpt>
      <trkpt lat="42.93657" lon="-0.20082">
        <ele>1619.96</ele>
        <time>2013-01-29T09:44:06Z</time>
      </trkpt>
      <trkpt lat="42.93655" lon="-0.20083">
        <ele>1620.92</ele>
        <time>2013-01-29T09:44:16Z</time>
      </trkpt>
      <trkpt lat="42.93647" lon="-0.20082">
        <ele>1622.36</ele>
        <time>2013-01-29T09:44:28Z</time>
      </trkpt>
      <trkpt lat="42.93638" lon="-0.2008">
        <ele>1624.77</ele>
        <time>2013-01-29T09:44:42Z</time>
      </trkpt>
      <trkpt lat="42.93637" lon="-0.20079">
        <ele>1624.77</ele>
        <time>2013-01-29T09:44:55Z</time>
      </trkpt>
      <trkpt lat="42.93638" lon="-0.20087">
        <ele>1625.25</ele>
        <time>2013-01-29T09:45:04Z</time>
      </trkpt>
      <trkpt lat="42.93642" lon="-0.20094">
        <ele>1627.17</ele>
        <time>2013-01-29T09:45:17Z</time>
      </trkpt>
      <trkpt lat="42.93634" lon="-0.20096">
        <ele>1629.57</ele>
        <time>2013-01-29T09:45:30Z</time>
      </trkpt>
      <trkpt lat="42.93631" lon="-0.20096">
        <ele>1630.53</ele>
        <time>2013-01-29T09:45:44Z</time>
      </trkpt>
      <trkpt lat="42.93631" lon="-0.20098">
        <ele>1631.01</ele>
        <time>2013-01-29T09:45:47Z</time>
      </trkpt>
      <trkpt lat="42.93632" lon="-0.20105">
        <ele>1632.46</ele>
        <time>2013-01-29T09:46:01Z</time>
      </trkpt>
      <trkpt lat="42.93632" lon="-0.20106">
        <ele>1632.46</ele>
        <time>2013-01-29T09:46:05Z</time>
      </trkpt>
      <trkpt lat="42.93632" lon="-0.20108">
        <ele>1634.38</ele>
        <time>2013-01-29T09:46:16Z</time>
      </trkpt>
      <trkpt lat="42.93628" lon="-0.20108">
        <ele>1634.86</ele>
        <time>2013-01-29T09:46:23Z</time>
      </trkpt>
      <trkpt lat="42.93627" lon="-0.20109">
        <ele>1635.82</ele>
        <time>2013-01-29T09:46:36Z</time>
      </trkpt>
      <trkpt lat="42.93629" lon="-0.20117">
        <ele>1638.7</ele>
        <time>2013-01-29T09:46:49Z</time>
      </trkpt>
      <trkpt lat="42.93631" lon="-0.20121">
        <ele>1639.67</ele>
        <time>2013-01-29T09:46:54Z</time>
      </trkpt>
      <trkpt lat="42.93635" lon="-0.2013">
        <ele>1641.11</ele>
        <time>2013-01-29T09:47:08Z</time>
      </trkpt>
      <trkpt lat="42.93639" lon="-0.20134">
        <ele>1643.03</ele>
        <time>2013-01-29T09:47:22Z</time>
      </trkpt>
      <trkpt lat="42.93639" lon="-0.20132">
        <ele>1641.59</ele>
        <time>2013-01-29T09:47:33Z</time>
      </trkpt>
      <trkpt lat="42.93641" lon="-0.2013">
        <ele>1642.07</ele>
        <time>2013-01-29T09:48:09Z</time>
      </trkpt>
      <trkpt lat="42.9364" lon="-0.20135">
        <ele>1642.07</ele>
        <time>2013-01-29T09:48:38Z</time>
      </trkpt>
      <trkpt lat="42.93641" lon="-0.20141">
        <ele>1643.03</ele>
        <time>2013-01-29T09:49:02Z</time>
      </trkpt>
      <trkpt lat="42.93641" lon="-0.20139">
        <ele>1643.03</ele>
        <time>2013-01-29T09:49:18Z</time>
      </trkpt>
      <trkpt lat="42.93639" lon="-0.20139">
        <ele>1643.99</ele>
        <time>2013-01-29T09:49:22Z</time>
      </trkpt>
      <trkpt lat="42.93629" lon="-0.2014">
        <ele>1646.4</ele>
        <time>2013-01-29T09:49:36Z</time>
      </trkpt>
      <trkpt lat="42.93621" lon="-0.20141">
        <ele>1648.8</ele>
        <time>2013-01-29T09:49:50Z</time>
      </trkpt>
      <trkpt lat="42.93619" lon="-0.20144">
        <ele>1650.24</ele>
        <time>2013-01-29T09:50:00Z</time>
      </trkpt>
      <trkpt lat="42.93624" lon="-0.20153">
        <ele>1652.16</ele>
        <time>2013-01-29T09:50:13Z</time>
      </trkpt>
      <trkpt lat="42.93623" lon="-0.20159">
        <ele>1654.09</ele>
        <time>2013-01-29T09:50:26Z</time>
      </trkpt>
      <trkpt lat="42.93623" lon="-0.2016">
        <ele>1654.09</ele>
        <time>2013-01-29T09:50:45Z</time>
      </trkpt>
      <trkpt lat="42.93621" lon="-0.20161">
        <ele>1654.57</ele>
        <time>2013-01-29T09:50:58Z</time>
      </trkpt>
      <trkpt lat="42.93612" lon="-0.20161">
        <ele>1656.97</ele>
        <time>2013-01-29T09:51:15Z</time>
      </trkpt>
      <trkpt lat="42.9361" lon="-0.20163">
        <ele>1656.97</ele>
        <time>2013-01-29T09:51:28Z</time>
      </trkpt>
      <trkpt lat="42.93602" lon="-0.20158">
        <ele>1659.37</ele>
        <time>2013-01-29T09:51:41Z</time>
      </trkpt>
      <trkpt lat="42.93599" lon="-0.20159">
        <ele>1659.85</ele>
        <time>2013-01-29T09:51:55Z</time>
      </trkpt>
      <trkpt lat="42.93599" lon="-0.2016">
        <ele>1660.33</ele>
        <time>2013-01-29T09:51:57Z</time>
      </trkpt>
      <trkpt lat="42.93602" lon="-0.20171">
        <ele>1662.74</ele>
        <time>2013-01-29T09:52:11Z</time>
      </trkpt>
      <trkpt lat="42.93604" lon="-0.2018">
        <ele>1665.14</ele>
        <time>2013-01-29T09:52:23Z</time>
      </trkpt>
      <trkpt lat="42.93605" lon="-0.2018">
        <ele>1665.14</ele>
        <time>2013-01-29T09:52:29Z</time>
      </trkpt>
      <trkpt lat="42.93603" lon="-0.20181">
        <ele>1665.62</ele>
        <time>2013-01-29T09:52:32Z</time>
      </trkpt>
      <trkpt lat="42.93595" lon="-0.20176">
        <ele>1667.54</ele>
        <time>2013-01-29T09:52:47Z</time>
      </trkpt>
      <trkpt lat="42.93586" lon="-0.20172">
        <ele>1669.47</ele>
        <time>2013-01-29T09:53:00Z</time>
      </trkpt>
      <trkpt lat="42.93583" lon="-0.2017">
        <ele>1670.43</ele>
        <time>2013-01-29T09:53:15Z</time>
      </trkpt>
      <trkpt lat="42.93576" lon="-0.20168">
        <ele>1672.83</ele>
        <time>2013-01-29T09:53:26Z</time>
      </trkpt>
      <trkpt lat="42.93571" lon="-0.20165">
        <ele>1673.79</ele>
        <time>2013-01-29T09:53:32Z</time>
      </trkpt>
      <trkpt lat="42.93564" lon="-0.20161">
        <ele>1675.72</ele>
        <time>2013-01-29T09:53:47Z</time>
      </trkpt>
      <trkpt lat="42.93562" lon="-0.2016">
        <ele>1676.2</ele>
        <time>2013-01-29T09:54:01Z</time>
      </trkpt>
      <trkpt lat="42.93562" lon="-0.20164">
        <ele>1677.16</ele>
        <time>2013-01-29T09:54:11Z</time>
      </trkpt>
      <trkpt lat="42.93563" lon="-0.20173">
        <ele>1678.6</ele>
        <time>2013-01-29T09:54:24Z</time>
      </trkpt>
      <trkpt lat="42.93567" lon="-0.20183">
        <ele>1680.52</ele>
        <time>2013-01-29T09:54:37Z</time>
      </trkpt>
      <trkpt lat="42.93568" lon="-0.20184">
        <ele>1680.52</ele>
        <time>2013-01-29T09:54:39Z</time>
      </trkpt>
      <trkpt lat="42.93571" lon="-0.20195">
        <ele>1681.96</ele>
        <time>2013-01-29T09:54:52Z</time>
      </trkpt>
      <trkpt lat="42.93576" lon="-0.20207">
        <ele>1684.37</ele>
        <time>2013-01-29T09:55:07Z</time>
      </trkpt>
      <trkpt lat="42.93577" lon="-0.20211">
        <ele>1685.33</ele>
        <time>2013-01-29T09:55:11Z</time>
      </trkpt>
      <trkpt lat="42.9358" lon="-0.20219">
        <ele>1687.73</ele>
        <time>2013-01-29T09:55:23Z</time>
      </trkpt>
      <trkpt lat="42.93576" lon="-0.2022">
        <ele>1689.17</ele>
        <time>2013-01-29T09:55:36Z</time>
      </trkpt>
      <trkpt lat="42.93574" lon="-0.20222">
        <ele>1690.14</ele>
        <time>2013-01-29T09:55:43Z</time>
      </trkpt>
      <trkpt lat="42.93572" lon="-0.20224">
        <ele>1690.62</ele>
        <time>2013-01-29T09:55:56Z</time>
      </trkpt>
      <trkpt lat="42.93572" lon="-0.20227">
        <ele>1691.58</ele>
        <time>2013-01-29T09:56:16Z</time>
      </trkpt>
      <trkpt lat="42.93566" lon="-0.2023">
        <ele>1693.5</ele>
        <time>2013-01-29T09:56:30Z</time>
      </trkpt>
      <trkpt lat="42.93562" lon="-0.2023">
        <ele>1695.42</ele>
        <time>2013-01-29T09:56:37Z</time>
      </trkpt>
      <trkpt lat="42.93557" lon="-0.20231">
        <ele>1696.86</ele>
        <time>2013-01-29T09:56:47Z</time>
      </trkpt>
      <trkpt lat="42.93554" lon="-0.20231">
        <ele>1697.83</ele>
        <time>2013-01-29T09:56:52Z</time>
      </trkpt>
      <trkpt lat="42.93553" lon="-0.20229">
        <ele>1698.31</ele>
        <time>2013-01-29T09:57:07Z</time>
      </trkpt>
      <trkpt lat="42.93552" lon="-0.20229">
        <ele>1697.34</ele>
        <time>2013-01-29T09:57:09Z</time>
      </trkpt>
      <trkpt lat="42.93551" lon="-0.20232">
        <ele>1697.34</ele>
        <time>2013-01-29T09:57:28Z</time>
      </trkpt>
      <trkpt lat="42.93545" lon="-0.20229">
        <ele>1699.27</ele>
        <time>2013-01-29T09:57:41Z</time>
      </trkpt>
      <trkpt lat="42.93537" lon="-0.20228">
        <ele>1702.63</ele>
        <time>2013-01-29T09:57:52Z</time>
      </trkpt>
      <trkpt lat="42.93533" lon="-0.20227">
        <ele>1702.15</ele>
        <time>2013-01-29T09:58:00Z</time>
      </trkpt>
      <trkpt lat="42.93525" lon="-0.20223">
        <ele>1705.52</ele>
        <time>2013-01-29T09:58:13Z</time>
      </trkpt>
      <trkpt lat="42.9352" lon="-0.20222">
        <ele>1707.44</ele>
        <time>2013-01-29T09:58:28Z</time>
      </trkpt>
      <trkpt lat="42.93512" lon="-0.20218">
        <ele>1709.84</ele>
        <time>2013-01-29T09:58:42Z</time>
      </trkpt>
      <trkpt lat="42.93503" lon="-0.20214">
        <ele>1712.25</ele>
        <time>2013-01-29T09:58:58Z</time>
      </trkpt>
      <trkpt lat="42.93501" lon="-0.20211">
        <ele>1712.73</ele>
        <time>2013-01-29T09:59:13Z</time>
      </trkpt>
      <trkpt lat="42.93499" lon="-0.2021">
        <ele>1713.69</ele>
        <time>2013-01-29T09:59:34Z</time>
      </trkpt>
      <trkpt lat="42.93492" lon="-0.20204">
        <ele>1715.13</ele>
        <time>2013-01-29T09:59:47Z</time>
      </trkpt>
      <trkpt lat="42.93486" lon="-0.202">
        <ele>1718.49</ele>
        <time>2013-01-29T09:59:57Z</time>
      </trkpt>
      <trkpt lat="42.93483" lon="-0.20197">
        <ele>1717.05</ele>
        <time>2013-01-29T10:00:11Z</time>
      </trkpt>
      <trkpt lat="42.93482" lon="-0.20193">
        <ele>1718.49</ele>
        <time>2013-01-29T10:00:24Z</time>
      </trkpt>
      <trkpt lat="42.93483" lon="-0.20193">
        <ele>1717.53</ele>
        <time>2013-01-29T10:00:37Z</time>
      </trkpt>
      <trkpt lat="42.93484" lon="-0.20192">
        <ele>1717.05</ele>
        <time>2013-01-29T10:00:55Z</time>
      </trkpt>
      <trkpt lat="42.93484" lon="-0.20191">
        <ele>1718.49</ele>
        <time>2013-01-29T10:00:58Z</time>
      </trkpt>
      <trkpt lat="42.93483" lon="-0.20191">
        <ele>1718.01</ele>
        <time>2013-01-29T10:01:11Z</time>
      </trkpt>
      <trkpt lat="42.93484" lon="-0.20192">
        <ele>1718.49</ele>
        <time>2013-01-29T10:01:29Z</time>
      </trkpt>
      <trkpt lat="42.93484" lon="-0.20192">
        <ele>1718.97</ele>
        <time>2013-01-29T10:01:42Z</time>
      </trkpt>
      <trkpt lat="42.93483" lon="-0.20194">
        <ele>1716.57</ele>
        <time>2013-01-29T10:01:54Z</time>
      </trkpt>
      <trkpt lat="42.9348" lon="-0.20193">
        <ele>1718.49</ele>
        <time>2013-01-29T10:02:09Z</time>
      </trkpt>
      <trkpt lat="42.93477" lon="-0.20189">
        <ele>1719.94</ele>
        <time>2013-01-29T10:02:18Z</time>
      </trkpt>
      <trkpt lat="42.9347" lon="-0.20182">
        <ele>1722.34</ele>
        <time>2013-01-29T10:02:33Z</time>
      </trkpt>
      <trkpt lat="42.93464" lon="-0.2018">
        <ele>1725.7</ele>
        <time>2013-01-29T10:02:41Z</time>
      </trkpt>
      <trkpt lat="42.93458" lon="-0.20176">
        <ele>1724.74</ele>
        <time>2013-01-29T10:02:53Z</time>
      </trkpt>
      <trkpt lat="42.93457" lon="-0.20175">
        <ele>1727.63</ele>
        <time>2013-01-29T10:02:55Z</time>
      </trkpt>
      <trkpt lat="42.93455" lon="-0.20174">
        <ele>1726.18</ele>
        <time>2013-01-29T10:02:59Z</time>
      </trkpt>
      <trkpt lat="42.9345" lon="-0.20175">
        <ele>1729.55</ele>
        <time>2013-01-29T10:03:10Z</time>
      </trkpt>
      <trkpt lat="42.93449" lon="-0.20179">
        <ele>1730.99</ele>
        <time>2013-01-29T10:03:17Z</time>
      </trkpt>
      <trkpt lat="42.93449" lon="-0.20182">
        <ele>1731.47</ele>
        <time>2013-01-29T10:03:24Z</time>
      </trkpt>
      <trkpt lat="42.93447" lon="-0.20185">
        <ele>1732.91</ele>
        <time>2013-01-29T10:03:31Z</time>
      </trkpt>
      <trkpt lat="42.93445" lon="-0.20184">
        <ele>1733.88</ele>
        <time>2013-01-29T10:03:34Z</time>
      </trkpt>
      <trkpt lat="42.93441" lon="-0.20178">
        <ele>1735.32</ele>
        <time>2013-01-29T10:03:43Z</time>
      </trkpt>
      <trkpt lat="42.9344" lon="-0.20178">
        <ele>1732.43</ele>
        <time>2013-01-29T10:03:46Z</time>
      </trkpt>
      <trkpt lat="42.93439" lon="-0.20177">
        <ele>1734.84</ele>
        <time>2013-01-29T10:03:48Z</time>
      </trkpt>
      <trkpt lat="42.93435" lon="-0.20171">
        <ele>1736.28</ele>
        <time>2013-01-29T10:03:58Z</time>
      </trkpt>
      <trkpt lat="42.93435" lon="-0.2017">
        <ele>1734.84</ele>
        <time>2013-01-29T10:03:59Z</time>
      </trkpt>
      <trkpt lat="42.93434" lon="-0.20165">
        <ele>1735.8</ele>
        <time>2013-01-29T10:04:04Z</time>
      </trkpt>
      <trkpt lat="42.93433" lon="-0.20163">
        <ele>1737.72</ele>
        <time>2013-01-29T10:04:09Z</time>
      </trkpt>
      <trkpt lat="42.93432" lon="-0.20163">
        <ele>1737.24</ele>
        <time>2013-01-29T10:04:10Z</time>
      </trkpt>
      <trkpt lat="42.9343" lon="-0.20158">
        <ele>1735.8</ele>
        <time>2013-01-29T10:04:21Z</time>
      </trkpt>
      <trkpt lat="42.93426" lon="-0.20149">
        <ele>1736.76</ele>
        <time>2013-01-29T10:04:33Z</time>
      </trkpt>
      <trkpt lat="42.93424" lon="-0.20149">
        <ele>1739.16</ele>
        <time>2013-01-29T10:04:35Z</time>
      </trkpt>
      <trkpt lat="42.93423" lon="-0.20149">
        <ele>1737.24</ele>
        <time>2013-01-29T10:04:38Z</time>
      </trkpt>
      <trkpt lat="42.93421" lon="-0.20149">
        <ele>1739.64</ele>
        <time>2013-01-29T10:04:42Z</time>
      </trkpt>
      <trkpt lat="42.93419" lon="-0.20149">
        <ele>1741.57</ele>
        <time>2013-01-29T10:04:47Z</time>
      </trkpt>
      <trkpt lat="42.93419" lon="-0.20149">
        <ele>1741.57</ele>
        <time>2013-01-29T10:04:56Z</time>
      </trkpt>
      <trkpt lat="42.93416" lon="-0.2015">
        <ele>1739.16</ele>
        <time>2013-01-29T10:05:05Z</time>
      </trkpt>
      <trkpt lat="42.93415" lon="-0.20149">
        <ele>1742.53</ele>
        <time>2013-01-29T10:05:07Z</time>
      </trkpt>
      <trkpt lat="42.93412" lon="-0.20148">
        <ele>1744.45</ele>
        <time>2013-01-29T10:05:13Z</time>
      </trkpt>
      <trkpt lat="42.93407" lon="-0.20147">
        <ele>1746.37</ele>
        <time>2013-01-29T10:05:21Z</time>
      </trkpt>
      <trkpt lat="42.93402" lon="-0.20149">
        <ele>1746.85</ele>
        <time>2013-01-29T10:05:29Z</time>
      </trkpt>
      <trkpt lat="42.934" lon="-0.20154">
        <ele>1750.22</ele>
        <time>2013-01-29T10:05:45Z</time>
      </trkpt>
      <trkpt lat="42.93398" lon="-0.20156">
        <ele>1749.74</ele>
        <time>2013-01-29T10:05:50Z</time>
      </trkpt>
      <trkpt lat="42.93395" lon="-0.20157">
        <ele>1749.26</ele>
        <time>2013-01-29T10:05:58Z</time>
      </trkpt>
      <trkpt lat="42.93395" lon="-0.20157">
        <ele>1751.18</ele>
        <time>2013-01-29T10:06:00Z</time>
      </trkpt>
      <trkpt lat="42.93395" lon="-0.20157">
        <ele>1751.66</ele>
        <time>2013-01-29T10:06:05Z</time>
      </trkpt>
      <trkpt lat="42.93393" lon="-0.20158">
        <ele>1751.18</ele>
        <time>2013-01-29T10:06:24Z</time>
      </trkpt>
      <trkpt lat="42.93391" lon="-0.2016">
        <ele>1751.18</ele>
        <time>2013-01-29T10:06:28Z</time>
      </trkpt>
      <trkpt lat="42.93387" lon="-0.20161">
        <ele>1751.66</ele>
        <time>2013-01-29T10:06:35Z</time>
      </trkpt>
      <trkpt lat="42.93385" lon="-0.20164">
        <ele>1754.54</ele>
        <time>2013-01-29T10:06:38Z</time>
      </trkpt>
      <trkpt lat="42.93383" lon="-0.20166">
        <ele>1753.1</ele>
        <time>2013-01-29T10:06:43Z</time>
      </trkpt>
      <trkpt lat="42.93382" lon="-0.20167">
        <ele>1755.5</ele>
        <time>2013-01-29T10:06:46Z</time>
      </trkpt>
      <trkpt lat="42.9338" lon="-0.20168">
        <ele>1754.54</ele>
        <time>2013-01-29T10:06:52Z</time>
      </trkpt>
      <trkpt lat="42.93379" lon="-0.20169">
        <ele>1754.06</ele>
        <time>2013-01-29T10:06:59Z</time>
      </trkpt>
      <trkpt lat="42.93377" lon="-0.20171">
        <ele>1757.43</ele>
        <time>2013-01-29T10:07:07Z</time>
      </trkpt>
      <trkpt lat="42.93377" lon="-0.20171">
        <ele>1754.54</ele>
        <time>2013-01-29T10:07:08Z</time>
      </trkpt>
      <trkpt lat="42.93377" lon="-0.20171">
        <ele>1754.54</ele>
        <time>2013-01-29T10:07:09Z</time>
      </trkpt>
      <trkpt lat="42.93377" lon="-0.20171">
        <ele>1757.43</ele>
        <time>2013-01-29T10:07:12Z</time>
      </trkpt>
      <trkpt lat="42.93378" lon="-0.20171">
        <ele>1754.54</ele>
        <time>2013-01-29T10:07:15Z</time>
      </trkpt>
      <trkpt lat="42.93378" lon="-0.20173">
        <ele>1757.43</ele>
        <time>2013-01-29T10:07:19Z</time>
      </trkpt>
      <trkpt lat="42.93378" lon="-0.20174">
        <ele>1757.43</ele>
        <time>2013-01-29T10:07:20Z</time>
      </trkpt>
      <trkpt lat="42.9338" lon="-0.20176">
        <ele>1757.43</ele>
        <time>2013-01-29T10:07:27Z</time>
      </trkpt>
      <trkpt lat="42.9338" lon="-0.20176">
        <ele>1757.43</ele>
        <time>2013-01-29T10:07:43Z</time>
      </trkpt>
      <trkpt lat="42.9338" lon="-0.20177">
        <ele>1755.5</ele>
        <time>2013-01-29T10:07:49Z</time>
      </trkpt>
      <trkpt lat="42.9338" lon="-0.20177">
        <ele>1757.43</ele>
        <time>2013-01-29T10:08:14Z</time>
      </trkpt>
      <trkpt lat="42.9338" lon="-0.20177">
        <ele>1755.5</ele>
        <time>2013-01-29T10:08:17Z</time>
      </trkpt>
      <trkpt lat="42.9338" lon="-0.20178">
        <ele>1758.87</ele>
        <time>2013-01-29T10:08:24Z</time>
      </trkpt>
      <trkpt lat="42.93381" lon="-0.20179">
        <ele>1749.74</ele>
        <time>2013-01-29T10:08:37Z</time>
      </trkpt>
      <trkpt lat="42.9338" lon="-0.20179">
        <ele>1761.27</ele>
        <time>2013-01-29T10:08:38Z</time>
      </trkpt>
      <trkpt lat="42.9338" lon="-0.20179">
        <ele>1755.99</ele>
        <time>2013-01-29T10:08:39Z</time>
      </trkpt>
      <trkpt lat="42.9338" lon="-0.20179">
        <ele>1758.87</ele>
        <time>2013-01-29T10:08:41Z</time>
      </trkpt>
      <trkpt lat="42.9338" lon="-0.2018">
        <ele>1752.62</ele>
        <time>2013-01-29T10:08:46Z</time>
      </trkpt>
      <trkpt lat="42.9338" lon="-0.2018">
        <ele>1757.43</ele>
        <time>2013-01-29T10:08:47Z</time>
      </trkpt>
      <trkpt lat="42.93379" lon="-0.20181">
        <ele>1755.99</ele>
        <time>2013-01-29T10:08:59Z</time>
      </trkpt>
      <trkpt lat="42.93379" lon="-0.20182">
        <ele>1757.91</ele>
        <time>2013-01-29T10:09:01Z</time>
      </trkpt>
      <trkpt lat="42.93379" lon="-0.20182">
        <ele>1754.06</ele>
        <time>2013-01-29T10:09:03Z</time>
      </trkpt>
      <trkpt lat="42.93379" lon="-0.20182">
        <ele>1755.99</ele>
        <time>2013-01-29T10:09:04Z</time>
      </trkpt>
      <trkpt lat="42.93379" lon="-0.20182">
        <ele>1757.43</ele>
        <time>2013-01-29T10:09:07Z</time>
      </trkpt>
      <trkpt lat="42.9338" lon="-0.20181">
        <ele>1751.66</ele>
        <time>2013-01-29T10:09:09Z</time>
      </trkpt>
      <trkpt lat="42.9338" lon="-0.20182">
        <ele>1757.91</ele>
        <time>2013-01-29T10:09:10Z</time>
      </trkpt>
      <trkpt lat="42.9338" lon="-0.20182">
        <ele>1747.81</ele>
        <time>2013-01-29T10:09:12Z</time>
      </trkpt>
      <trkpt lat="42.9338" lon="-0.20181">
        <ele>1763.2</ele>
        <time>2013-01-29T10:09:13Z</time>
      </trkpt>
      <trkpt lat="42.9338" lon="-0.20181">
        <ele>1755.5</ele>
        <time>2013-01-29T10:09:14Z</time>
      </trkpt>
      <trkpt lat="42.9338" lon="-0.20179">
        <ele>1755.5</ele>
        <time>2013-01-29T10:09:32Z</time>
      </trkpt>
      <trkpt lat="42.9338" lon="-0.20176">
        <ele>1757.43</ele>
        <time>2013-01-29T10:09:42Z</time>
      </trkpt>
      <trkpt lat="42.9338" lon="-0.20179">
        <ele>1756.95</ele>
        <time>2013-01-29T10:09:56Z</time>
      </trkpt>
      <trkpt lat="42.93373" lon="-0.20178">
        <ele>1757.91</ele>
        <time>2013-01-29T10:10:08Z</time>
      </trkpt>
      <trkpt lat="42.93369" lon="-0.20181">
        <ele>1757.91</ele>
        <time>2013-01-29T10:10:26Z</time>
      </trkpt>
      <trkpt lat="42.93366" lon="-0.20181">
        <ele>1758.87</ele>
        <time>2013-01-29T10:10:42Z</time>
      </trkpt>
      <trkpt lat="42.93366" lon="-0.20181">
        <ele>1758.87</ele>
        <time>2013-01-29T10:11:17Z</time>
      </trkpt>
      <trkpt lat="42.93366" lon="-0.20181">
        <ele>1757.91</ele>
        <time>2013-01-29T10:11:46Z</time>
      </trkpt>
      <trkpt lat="42.93365" lon="-0.20183">
        <ele>1758.87</ele>
        <time>2013-01-29T10:12:10Z</time>
      </trkpt>
      <trkpt lat="42.93365" lon="-0.20187">
        <ele>1760.31</ele>
        <time>2013-01-29T10:12:30Z</time>
      </trkpt>
      <trkpt lat="42.93365" lon="-0.20184">
        <ele>1760.31</ele>
        <time>2013-01-29T10:12:45Z</time>
      </trkpt>
      <trkpt lat="42.93365" lon="-0.20185">
        <ele>1760.31</ele>
        <time>2013-01-29T10:13:01Z</time>
      </trkpt>
      <trkpt lat="42.93364" lon="-0.20184">
        <ele>1759.83</ele>
        <time>2013-01-29T10:13:15Z</time>
      </trkpt>
      <trkpt lat="42.93364" lon="-0.20182">
        <ele>1759.35</ele>
        <time>2013-01-29T10:13:36Z</time>
      </trkpt>
      <trkpt lat="42.93366" lon="-0.20185">
        <ele>1760.79</ele>
        <time>2013-01-29T10:13:54Z</time>
      </trkpt>
      <trkpt lat="42.9337" lon="-0.20191">
        <ele>1762.23</ele>
        <time>2013-01-29T10:14:04Z</time>
      </trkpt>
      <trkpt lat="42.93371" lon="-0.20192">
        <ele>1763.2</ele>
        <time>2013-01-29T10:14:06Z</time>
      </trkpt>
      <trkpt lat="42.93374" lon="-0.20194">
        <ele>1763.68</ele>
        <time>2013-01-29T10:14:11Z</time>
      </trkpt>
      <trkpt lat="42.93378" lon="-0.20201">
        <ele>1765.12</ele>
        <time>2013-01-29T10:14:25Z</time>
      </trkpt>
      <trkpt lat="42.93381" lon="-0.20206">
        <ele>1766.56</ele>
        <time>2013-01-29T10:14:37Z</time>
      </trkpt>
      <trkpt lat="42.9338" lon="-0.20208">
        <ele>1767.52</ele>
        <time>2013-01-29T10:14:47Z</time>
      </trkpt>
      <trkpt lat="42.93373" lon="-0.20208">
        <ele>1769.44</ele>
        <time>2013-01-29T10:15:01Z</time>
      </trkpt>
      <trkpt lat="42.93367" lon="-0.20209">
        <ele>1771.37</ele>
        <time>2013-01-29T10:15:15Z</time>
      </trkpt>
      <trkpt lat="42.93365" lon="-0.20212">
        <ele>1773.29</ele>
        <time>2013-01-29T10:15:37Z</time>
      </trkpt>
      <trkpt lat="42.93366" lon="-0.20212">
        <ele>1773.29</ele>
        <time>2013-01-29T10:15:49Z</time>
      </trkpt>
      <trkpt lat="42.93364" lon="-0.20212">
        <ele>1773.77</ele>
        <time>2013-01-29T10:15:58Z</time>
      </trkpt>
      <trkpt lat="42.93365" lon="-0.20213">
        <ele>1774.73</ele>
        <time>2013-01-29T10:16:12Z</time>
      </trkpt>
      <trkpt lat="42.93364" lon="-0.2021">
        <ele>1774.25</ele>
        <time>2013-01-29T10:16:34Z</time>
      </trkpt>
      <trkpt lat="42.93365" lon="-0.20208">
        <ele>1775.21</ele>
        <time>2013-01-29T10:17:04Z</time>
      </trkpt>
      <trkpt lat="42.93364" lon="-0.20211">
        <ele>1775.69</ele>
        <time>2013-01-29T10:17:20Z</time>
      </trkpt>
      <trkpt lat="42.93364" lon="-0.20206">
        <ele>1775.21</ele>
        <time>2013-01-29T10:17:38Z</time>
      </trkpt>
      <trkpt lat="42.93363" lon="-0.20201">
        <ele>1775.69</ele>
        <time>2013-01-29T10:18:06Z</time>
      </trkpt>
      <trkpt lat="42.93364" lon="-0.20204">
        <ele>1775.21</ele>
        <time>2013-01-29T10:18:23Z</time>
      </trkpt>
      <trkpt lat="42.93365" lon="-0.20207">
        <ele>1775.21</ele>
        <time>2013-01-29T10:18:52Z</time>
      </trkpt>
      <trkpt lat="42.9336" lon="-0.20212">
        <ele>1777.61</ele>
        <time>2013-01-29T10:19:03Z</time>
      </trkpt>
      <trkpt lat="42.93357" lon="-0.2022">
        <ele>1780.98</ele>
        <time>2013-01-29T10:19:17Z</time>
      </trkpt>
      <trkpt lat="42.93352" lon="-0.20231">
        <ele>1783.38</ele>
        <time>2013-01-29T10:19:31Z</time>
      </trkpt>
      <trkpt lat="42.9335" lon="-0.20234">
        <ele>1784.34</ele>
        <time>2013-01-29T10:19:44Z</time>
      </trkpt>
      <trkpt lat="42.93349" lon="-0.20234">
        <ele>1784.34</ele>
        <time>2013-01-29T10:19:48Z</time>
      </trkpt>
      <trkpt lat="42.93343" lon="-0.20242">
        <ele>1787.23</ele>
        <time>2013-01-29T10:20:01Z</time>
      </trkpt>
      <trkpt lat="42.93342" lon="-0.20242">
        <ele>1787.71</ele>
        <time>2013-01-29T10:20:12Z</time>
      </trkpt>
      <trkpt lat="42.9335" lon="-0.20245">
        <ele>1789.63</ele>
        <time>2013-01-29T10:20:26Z</time>
      </trkpt>
      <trkpt lat="42.9335" lon="-0.20248">
        <ele>1790.11</ele>
        <time>2013-01-29T10:20:35Z</time>
      </trkpt>
      <trkpt lat="42.93348" lon="-0.20258">
        <ele>1792.52</ele>
        <time>2013-01-29T10:20:47Z</time>
      </trkpt>
      <trkpt lat="42.93342" lon="-0.20267">
        <ele>1795.4</ele>
        <time>2013-01-29T10:21:02Z</time>
      </trkpt>
      <trkpt lat="42.93342" lon="-0.20268">
        <ele>1795.88</ele>
        <time>2013-01-29T10:21:03Z</time>
      </trkpt>
      <trkpt lat="42.93341" lon="-0.20268">
        <ele>1796.84</ele>
        <time>2013-01-29T10:21:14Z</time>
      </trkpt>
      <trkpt lat="42.93346" lon="-0.20269">
        <ele>1797.8</ele>
        <time>2013-01-29T10:21:27Z</time>
      </trkpt>
      <trkpt lat="42.93354" lon="-0.20272">
        <ele>1800.21</ele>
        <time>2013-01-29T10:21:42Z</time>
      </trkpt>
      <trkpt lat="42.93358" lon="-0.20269">
        <ele>1801.65</ele>
        <time>2013-01-29T10:21:56Z</time>
      </trkpt>
      <trkpt lat="42.93359" lon="-0.20274">
        <ele>1802.13</ele>
        <time>2013-01-29T10:22:12Z</time>
      </trkpt>
      <trkpt lat="42.93355" lon="-0.20282">
        <ele>1804.05</ele>
        <time>2013-01-29T10:22:22Z</time>
      </trkpt>
      <trkpt lat="42.9335" lon="-0.20288">
        <ele>1806.94</ele>
        <time>2013-01-29T10:22:35Z</time>
      </trkpt>
      <trkpt lat="42.93346" lon="-0.20288">
        <ele>1807.42</ele>
        <time>2013-01-29T10:22:51Z</time>
      </trkpt>
      <trkpt lat="42.93345" lon="-0.20289">
        <ele>1808.38</ele>
        <time>2013-01-29T10:23:05Z</time>
      </trkpt>
      <trkpt lat="42.93343" lon="-0.20291">
        <ele>1809.34</ele>
        <time>2013-01-29T10:23:18Z</time>
      </trkpt>
      <trkpt lat="42.93348" lon="-0.20288">
        <ele>1810.78</ele>
        <time>2013-01-29T10:23:33Z</time>
      </trkpt>
      <trkpt lat="42.93352" lon="-0.20287">
        <ele>1812.22</ele>
        <time>2013-01-29T10:23:40Z</time>
      </trkpt>
      <trkpt lat="42.93354" lon="-0.20287">
        <ele>1812.7</ele>
        <time>2013-01-29T10:23:42Z</time>
      </trkpt>
      <trkpt lat="42.9336" lon="-0.20289">
        <ele>1814.15</ele>
        <time>2013-01-29T10:23:58Z</time>
      </trkpt>
      <trkpt lat="42.93361" lon="-0.20293">
        <ele>1814.15</ele>
        <time>2013-01-29T10:24:13Z</time>
      </trkpt>
      <trkpt lat="42.93359" lon="-0.20297">
        <ele>1816.07</ele>
        <time>2013-01-29T10:24:23Z</time>
      </trkpt>
      <trkpt lat="42.93355" lon="-0.20302">
        <ele>1817.51</ele>
        <time>2013-01-29T10:24:38Z</time>
      </trkpt>
      <trkpt lat="42.9335" lon="-0.20307">
        <ele>1818.47</ele>
        <time>2013-01-29T10:24:53Z</time>
      </trkpt>
      <trkpt lat="42.93353" lon="-0.20305">
        <ele>1819.43</ele>
        <time>2013-01-29T10:25:03Z</time>
      </trkpt>
      <trkpt lat="42.93358" lon="-0.20303">
        <ele>1821.35</ele>
        <time>2013-01-29T10:25:15Z</time>
      </trkpt>
      <trkpt lat="42.93358" lon="-0.20306">
        <ele>1821.84</ele>
        <time>2013-01-29T10:25:21Z</time>
      </trkpt>
      <trkpt lat="42.93354" lon="-0.20314">
        <ele>1823.28</ele>
        <time>2013-01-29T10:25:33Z</time>
      </trkpt>
      <trkpt lat="42.93356" lon="-0.20312">
        <ele>1823.76</ele>
        <time>2013-01-29T10:25:48Z</time>
      </trkpt>
      <trkpt lat="42.93359" lon="-0.20313">
        <ele>1824.24</ele>
        <time>2013-01-29T10:26:02Z</time>
      </trkpt>
      <trkpt lat="42.93358" lon="-0.20315">
        <ele>1825.2</ele>
        <time>2013-01-29T10:26:13Z</time>
      </trkpt>
      <trkpt lat="42.93355" lon="-0.2032">
        <ele>1827.12</ele>
        <time>2013-01-29T10:26:24Z</time>
      </trkpt>
      <trkpt lat="42.93353" lon="-0.20325">
        <ele>1828.56</ele>
        <time>2013-01-29T10:26:39Z</time>
      </trkpt>
      <trkpt lat="42.93357" lon="-0.20325">
        <ele>1830.01</ele>
        <time>2013-01-29T10:26:50Z</time>
      </trkpt>
      <trkpt lat="42.93357" lon="-0.20329">
        <ele>1830.97</ele>
        <time>2013-01-29T10:27:04Z</time>
      </trkpt>
      <trkpt lat="42.93357" lon="-0.20331">
        <ele>1831.45</ele>
        <time>2013-01-29T10:27:18Z</time>
      </trkpt>
      <trkpt lat="42.93358" lon="-0.2033">
        <ele>1832.41</ele>
        <time>2013-01-29T10:27:30Z</time>
      </trkpt>
      <trkpt lat="42.93361" lon="-0.20328">
        <ele>1832.89</ele>
        <time>2013-01-29T10:27:46Z</time>
      </trkpt>
      <trkpt lat="42.93361" lon="-0.20329">
        <ele>1828.56</ele>
        <time>2013-01-29T10:27:48Z</time>
      </trkpt>
      <trkpt lat="42.93361" lon="-0.20331">
        <ele>1832.41</ele>
        <time>2013-01-29T10:27:56Z</time>
      </trkpt>
      <trkpt lat="42.93362" lon="-0.20329">
        <ele>1831.93</ele>
        <time>2013-01-29T10:28:30Z</time>
      </trkpt>
      <trkpt lat="42.93363" lon="-0.2033">
        <ele>1835.77</ele>
        <time>2013-01-29T10:28:51Z</time>
      </trkpt>
      <trkpt lat="42.93361" lon="-0.2033">
        <ele>1833.37</ele>
        <time>2013-01-29T10:28:52Z</time>
      </trkpt>
      <trkpt lat="42.93361" lon="-0.20332">
        <ele>1832.89</ele>
        <time>2013-01-29T10:28:57Z</time>
      </trkpt>
      <trkpt lat="42.93362" lon="-0.20332">
        <ele>1832.89</ele>
        <time>2013-01-29T10:29:09Z</time>
      </trkpt>
      <trkpt lat="42.93358" lon="-0.20337">
        <ele>1835.29</ele>
        <time>2013-01-29T10:29:22Z</time>
      </trkpt>
      <trkpt lat="42.93357" lon="-0.2034">
        <ele>1834.81</ele>
        <time>2013-01-29T10:29:31Z</time>
      </trkpt>
      <trkpt lat="42.93356" lon="-0.2034">
        <ele>1834.81</ele>
        <time>2013-01-29T10:29:38Z</time>
      </trkpt>
      <trkpt lat="42.93357" lon="-0.20339">
        <ele>1833.85</ele>
        <time>2013-01-29T10:29:49Z</time>
      </trkpt>
      <trkpt lat="42.93357" lon="-0.20339">
        <ele>1833.85</ele>
        <time>2013-01-29T10:30:24Z</time>
      </trkpt>
      <trkpt lat="42.93357" lon="-0.20338">
        <ele>1833.37</ele>
        <time>2013-01-29T10:30:54Z</time>
      </trkpt>
      <trkpt lat="42.93356" lon="-0.20341">
        <ele>1833.37</ele>
        <time>2013-01-29T10:31:12Z</time>
      </trkpt>
      <trkpt lat="42.93354" lon="-0.2034">
        <ele>1833.85</ele>
        <time>2013-01-29T10:31:50Z</time>
      </trkpt>
      <trkpt lat="42.93356" lon="-0.20343">
        <ele>1833.37</ele>
        <time>2013-01-29T10:32:16Z</time>
      </trkpt>
      <trkpt lat="42.93356" lon="-0.20345">
        <ele>1833.37</ele>
        <time>2013-01-29T10:32:57Z</time>
      </trkpt>
      <trkpt lat="42.93359" lon="-0.20341">
        <ele>1834.33</ele>
        <time>2013-01-29T10:33:40Z</time>
      </trkpt>
      <trkpt lat="42.93359" lon="-0.20338">
        <ele>1833.85</ele>
        <time>2013-01-29T10:34:23Z</time>
      </trkpt>
      <trkpt lat="42.93357" lon="-0.20337">
        <ele>1833.37</ele>
        <time>2013-01-29T10:35:01Z</time>
      </trkpt>
      <trkpt lat="42.93358" lon="-0.20338">
        <ele>1833.37</ele>
        <time>2013-01-29T10:35:22Z</time>
      </trkpt>
      <trkpt lat="42.93361" lon="-0.20338">
        <ele>1833.37</ele>
        <time>2013-01-29T10:35:54Z</time>
      </trkpt>
      <trkpt lat="42.93358" lon="-0.20338">
        <ele>1831.45</ele>
        <time>2013-01-29T10:36:26Z</time>
      </trkpt>
      <trkpt lat="42.93358" lon="-0.20338">
        <ele>1835.29</ele>
        <time>2013-01-29T10:36:28Z</time>
      </trkpt>
      <trkpt lat="42.93359" lon="-0.20337">
        <ele>1834.33</ele>
        <time>2013-01-29T10:36:33Z</time>
      </trkpt>
      <trkpt lat="42.93357" lon="-0.20338">
        <ele>1833.85</ele>
        <time>2013-01-29T10:36:39Z</time>
      </trkpt>
      <trkpt lat="42.93358" lon="-0.20337">
        <ele>1830.49</ele>
        <time>2013-01-29T10:36:42Z</time>
      </trkpt>
      <trkpt lat="42.93358" lon="-0.20337">
        <ele>1833.37</ele>
        <time>2013-01-29T10:36:51Z</time>
      </trkpt>
      <trkpt lat="42.93356" lon="-0.20337">
        <ele>1832.89</ele>
        <time>2013-01-29T10:37:25Z</time>
      </trkpt>
      <trkpt lat="42.93357" lon="-0.20336">
        <ele>1833.85</ele>
        <time>2013-01-29T10:38:04Z</time>
      </trkpt>
      <trkpt lat="42.93357" lon="-0.2034">
        <ele>1832.89</ele>
        <time>2013-01-29T10:38:25Z</time>
      </trkpt>
      <trkpt lat="42.93358" lon="-0.2034">
        <ele>1833.37</ele>
        <time>2013-01-29T10:38:49Z</time>
      </trkpt>
      <trkpt lat="42.93358" lon="-0.20341">
        <ele>1832.41</ele>
        <time>2013-01-29T10:38:57Z</time>
      </trkpt>
      <trkpt lat="42.93358" lon="-0.20341">
        <ele>1832.89</ele>
        <time>2013-01-29T10:39:31Z</time>
      </trkpt>
      <trkpt lat="42.93359" lon="-0.2034">
        <ele>1832.89</ele>
        <time>2013-01-29T10:40:09Z</time>
      </trkpt>
      <trkpt lat="42.93359" lon="-0.2034">
        <ele>1832.89</ele>
        <time>2013-01-29T10:40:41Z</time>
      </trkpt>
      <trkpt lat="42.93358" lon="-0.2034">
        <ele>1832.41</ele>
        <time>2013-01-29T10:41:16Z</time>
      </trkpt>
      <trkpt lat="42.93358" lon="-0.2034">
        <ele>1832.41</ele>
        <time>2013-01-29T10:41:52Z</time>
      </trkpt>
      <trkpt lat="42.93359" lon="-0.20338">
        <ele>1832.41</ele>
        <time>2013-01-29T10:42:24Z</time>
      </trkpt>
      <trkpt lat="42.93357" lon="-0.2034">
        <ele>1832.41</ele>
        <time>2013-01-29T10:43:00Z</time>
      </trkpt>
      <trkpt lat="42.93358" lon="-0.20339">
        <ele>1831.93</ele>
        <time>2013-01-29T10:43:35Z</time>
      </trkpt>
      <trkpt lat="42.93357" lon="-0.20342">
        <ele>1834.81</ele>
        <time>2013-01-29T10:43:43Z</time>
      </trkpt>
      <trkpt lat="42.93356" lon="-0.2034">
        <ele>1832.89</ele>
        <time>2013-01-29T10:44:01Z</time>
      </trkpt>
      <trkpt lat="42.93359" lon="-0.20341">
        <ele>1832.89</ele>
        <time>2013-01-29T10:44:20Z</time>
      </trkpt>
      <trkpt lat="42.93359" lon="-0.20339">
        <ele>1832.89</ele>
        <time>2013-01-29T10:44:30Z</time>
      </trkpt>
      <trkpt lat="42.93361" lon="-0.20337">
        <ele>1832.41</ele>
        <time>2013-01-29T10:44:33Z</time>
      </trkpt>
      <trkpt lat="42.93368" lon="-0.20329">
        <ele>1830.01</ele>
        <time>2013-01-29T10:44:43Z</time>
      </trkpt>
      <trkpt lat="42.93368" lon="-0.20328">
        <ele>1829.53</ele>
        <time>2013-01-29T10:44:45Z</time>
      </trkpt>
      <trkpt lat="42.93369" lon="-0.20325">
        <ele>1829.53</ele>
        <time>2013-01-29T10:44:47Z</time>
      </trkpt>
      <trkpt lat="42.93369" lon="-0.2032">
        <ele>1827.6</ele>
        <time>2013-01-29T10:44:51Z</time>
      </trkpt>
      <trkpt lat="42.93372" lon="-0.20312">
        <ele>1825.2</ele>
        <time>2013-01-29T10:44:58Z</time>
      </trkpt>
      <trkpt lat="42.93371" lon="-0.20308">
        <ele>1824.24</ele>
        <time>2013-01-29T10:45:02Z</time>
      </trkpt>
      <trkpt lat="42.93369" lon="-0.20308">
        <ele>1822.8</ele>
        <time>2013-01-29T10:45:05Z</time>
      </trkpt>
      <trkpt lat="42.93366" lon="-0.20307">
        <ele>1820.87</ele>
        <time>2013-01-29T10:45:11Z</time>
      </trkpt>
      <trkpt lat="42.93367" lon="-0.20297">
        <ele>1817.99</ele>
        <time>2013-01-29T10:45:14Z</time>
      </trkpt>
      <trkpt lat="42.93359" lon="-0.20295">
        <ele>1813.66</ele>
        <time>2013-01-29T10:45:19Z</time>
      </trkpt>
      <trkpt lat="42.93357" lon="-0.20293">
        <ele>1813.18</ele>
        <time>2013-01-29T10:45:20Z</time>
      </trkpt>
      <trkpt lat="42.93359" lon="-0.20286">
        <ele>1809.82</ele>
        <time>2013-01-29T10:45:22Z</time>
      </trkpt>
      <trkpt lat="42.93356" lon="-0.20282">
        <ele>1805.97</ele>
        <time>2013-01-29T10:45:26Z</time>
      </trkpt>
      <trkpt lat="42.93355" lon="-0.20276">
        <ele>1803.57</ele>
        <time>2013-01-29T10:45:28Z</time>
      </trkpt>
      <trkpt lat="42.93352" lon="-0.20266">
        <ele>1796.84</ele>
        <time>2013-01-29T10:45:33Z</time>
      </trkpt>
      <trkpt lat="42.93351" lon="-0.20258">
        <ele>1793</ele>
        <time>2013-01-29T10:45:36Z</time>
      </trkpt>
      <trkpt lat="42.93351" lon="-0.20253">
        <ele>1789.15</ele>
        <time>2013-01-29T10:45:38Z</time>
      </trkpt>
      <trkpt lat="42.9335" lon="-0.2025">
        <ele>1788.67</ele>
        <time>2013-01-29T10:45:39Z</time>
      </trkpt>
      <trkpt lat="42.93347" lon="-0.20245">
        <ele>1785.79</ele>
        <time>2013-01-29T10:45:41Z</time>
      </trkpt>
      <trkpt lat="42.93356" lon="-0.20234">
        <ele>1781.94</ele>
        <time>2013-01-29T10:45:44Z</time>
      </trkpt>
      <trkpt lat="42.93363" lon="-0.20219">
        <ele>1776.65</ele>
        <time>2013-01-29T10:45:49Z</time>
      </trkpt>
      <trkpt lat="42.93366" lon="-0.20216">
        <ele>1775.69</ele>
        <time>2013-01-29T10:45:50Z</time>
      </trkpt>
      <trkpt lat="42.93372" lon="-0.20212">
        <ele>1774.25</ele>
        <time>2013-01-29T10:45:53Z</time>
      </trkpt>
      <trkpt lat="42.93371" lon="-0.20211">
        <ele>1774.73</ele>
        <time>2013-01-29T10:46:06Z</time>
      </trkpt>
      <trkpt lat="42.93369" lon="-0.20214">
        <ele>1774.73</ele>
        <time>2013-01-29T10:46:26Z</time>
      </trkpt>
      <trkpt lat="42.93372" lon="-0.20211">
        <ele>1774.25</ele>
        <time>2013-01-29T10:46:50Z</time>
      </trkpt>
      <trkpt lat="42.93374" lon="-0.2021">
        <ele>1774.73</ele>
        <time>2013-01-29T10:47:12Z</time>
      </trkpt>
      <trkpt lat="42.93375" lon="-0.20209">
        <ele>1774.73</ele>
        <time>2013-01-29T10:47:36Z</time>
      </trkpt>
      <trkpt lat="42.93375" lon="-0.20209">
        <ele>1774.73</ele>
        <time>2013-01-29T10:48:04Z</time>
      </trkpt>
      <trkpt lat="42.9337" lon="-0.20208">
        <ele>1774.73</ele>
        <time>2013-01-29T10:48:24Z</time>
      </trkpt>
      <trkpt lat="42.93377" lon="-0.20209">
        <ele>1775.21</ele>
        <time>2013-01-29T10:48:46Z</time>
      </trkpt>
      <trkpt lat="42.93374" lon="-0.20208">
        <ele>1775.21</ele>
        <time>2013-01-29T10:49:03Z</time>
      </trkpt>
      <trkpt lat="42.93366" lon="-0.20217">
        <ele>1775.21</ele>
        <time>2013-01-29T10:49:28Z</time>
      </trkpt>
      <trkpt lat="42.93366" lon="-0.20216">
        <ele>1775.21</ele>
        <time>2013-01-29T10:49:46Z</time>
      </trkpt>
      <trkpt lat="42.93368" lon="-0.20213">
        <ele>1775.21</ele>
        <time>2013-01-29T10:49:55Z</time>
      </trkpt>
      <trkpt lat="42.9338" lon="-0.20208">
        <ele>1772.33</ele>
        <time>2013-01-29T10:50:02Z</time>
      </trkpt>
      <trkpt lat="42.93381" lon="-0.20207">
        <ele>1771.85</ele>
        <time>2013-01-29T10:50:06Z</time>
      </trkpt>
      <trkpt lat="42.93384" lon="-0.202">
        <ele>1767.52</ele>
        <time>2013-01-29T10:50:11Z</time>
      </trkpt>
      <trkpt lat="42.93385" lon="-0.202">
        <ele>1766.56</ele>
        <time>2013-01-29T10:50:12Z</time>
      </trkpt>
      <trkpt lat="42.93389" lon="-0.20202">
        <ele>1764.64</ele>
        <time>2013-01-29T10:50:16Z</time>
      </trkpt>
      <trkpt lat="42.93395" lon="-0.20203">
        <ele>1762.23</ele>
        <time>2013-01-29T10:50:20Z</time>
      </trkpt>
      <trkpt lat="42.93405" lon="-0.20209">
        <ele>1759.35</ele>
        <time>2013-01-29T10:50:33Z</time>
      </trkpt>
      <trkpt lat="42.93408" lon="-0.2021">
        <ele>1757.91</ele>
        <time>2013-01-29T10:50:36Z</time>
      </trkpt>
      <trkpt lat="42.93415" lon="-0.20212">
        <ele>1755.02</ele>
        <time>2013-01-29T10:50:42Z</time>
      </trkpt>
      <trkpt lat="42.93426" lon="-0.20222">
        <ele>1751.66</ele>
        <time>2013-01-29T10:50:50Z</time>
      </trkpt>
      <trkpt lat="42.9344" lon="-0.20232">
        <ele>1748.29</ele>
        <time>2013-01-29T10:51:02Z</time>
      </trkpt>
      <trkpt lat="42.9345" lon="-0.20239">
        <ele>1745.89</ele>
        <time>2013-01-29T10:51:07Z</time>
      </trkpt>
      <trkpt lat="42.93458" lon="-0.20245">
        <ele>1743.01</ele>
        <time>2013-01-29T10:51:19Z</time>
      </trkpt>
      <trkpt lat="42.93469" lon="-0.20256">
        <ele>1740.12</ele>
        <time>2013-01-29T10:51:24Z</time>
      </trkpt>
      <trkpt lat="42.93474" lon="-0.2026">
        <ele>1738.68</ele>
        <time>2013-01-29T10:51:27Z</time>
      </trkpt>
      <trkpt lat="42.93482" lon="-0.20266">
        <ele>1735.8</ele>
        <time>2013-01-29T10:51:31Z</time>
      </trkpt>
      <trkpt lat="42.93491" lon="-0.20271">
        <ele>1732.43</ele>
        <time>2013-01-29T10:51:38Z</time>
      </trkpt>
      <trkpt lat="42.93504" lon="-0.20278">
        <ele>1728.59</ele>
        <time>2013-01-29T10:51:44Z</time>
      </trkpt>
      <trkpt lat="42.9351" lon="-0.2028">
        <ele>1726.67</ele>
        <time>2013-01-29T10:51:47Z</time>
      </trkpt>
      <trkpt lat="42.93523" lon="-0.20285">
        <ele>1723.78</ele>
        <time>2013-01-29T10:51:52Z</time>
      </trkpt>
      <trkpt lat="42.93537" lon="-0.20288">
        <ele>1721.86</ele>
        <time>2013-01-29T10:51:56Z</time>
      </trkpt>
      <trkpt lat="42.93544" lon="-0.20289">
        <ele>1720.9</ele>
        <time>2013-01-29T10:51:58Z</time>
      </trkpt>
      <trkpt lat="42.93552" lon="-0.20287">
        <ele>1719.94</ele>
        <time>2013-01-29T10:52:00Z</time>
      </trkpt>
      <trkpt lat="42.93558" lon="-0.20285">
        <ele>1718.97</ele>
        <time>2013-01-29T10:52:02Z</time>
      </trkpt>
      <trkpt lat="42.93568" lon="-0.20282">
        <ele>1715.61</ele>
        <time>2013-01-29T10:52:06Z</time>
      </trkpt>
      <trkpt lat="42.93567" lon="-0.20277">
        <ele>1713.69</ele>
        <time>2013-01-29T10:52:10Z</time>
      </trkpt>
      <trkpt lat="42.93569" lon="-0.20274">
        <ele>1713.21</ele>
        <time>2013-01-29T10:52:30Z</time>
      </trkpt>
      <trkpt lat="42.93569" lon="-0.20273">
        <ele>1713.69</ele>
        <time>2013-01-29T10:52:35Z</time>
      </trkpt>
      <trkpt lat="42.93574" lon="-0.20261">
        <ele>1710.32</ele>
        <time>2013-01-29T10:52:40Z</time>
      </trkpt>
      <trkpt lat="42.93569" lon="-0.20256">
        <ele>1707.92</ele>
        <time>2013-01-29T10:52:43Z</time>
      </trkpt>
      <trkpt lat="42.9357" lon="-0.20251">
        <ele>1704.55</ele>
        <time>2013-01-29T10:52:45Z</time>
      </trkpt>
      <trkpt lat="42.93572" lon="-0.20249">
        <ele>1703.59</ele>
        <time>2013-01-29T10:52:46Z</time>
      </trkpt>
      <trkpt lat="42.93586" lon="-0.20243">
        <ele>1699.75</ele>
        <time>2013-01-29T10:52:55Z</time>
      </trkpt>
      <trkpt lat="42.93578" lon="-0.20238">
        <ele>1697.83</ele>
        <time>2013-01-29T10:53:00Z</time>
      </trkpt>
      <trkpt lat="42.93576" lon="-0.20235">
        <ele>1695.42</ele>
        <time>2013-01-29T10:53:02Z</time>
      </trkpt>
      <trkpt lat="42.93579" lon="-0.20224">
        <ele>1692.54</ele>
        <time>2013-01-29T10:53:06Z</time>
      </trkpt>
      <trkpt lat="42.93583" lon="-0.20215">
        <ele>1689.17</ele>
        <time>2013-01-29T10:53:09Z</time>
      </trkpt>
      <trkpt lat="42.93583" lon="-0.20211">
        <ele>1687.25</ele>
        <time>2013-01-29T10:53:10Z</time>
      </trkpt>
      <trkpt lat="42.93586" lon="-0.20197">
        <ele>1681</ele>
        <time>2013-01-29T10:53:15Z</time>
      </trkpt>
      <trkpt lat="42.9359" lon="-0.20189">
        <ele>1676.68</ele>
        <time>2013-01-29T10:53:18Z</time>
      </trkpt>
      <trkpt lat="42.93589" lon="-0.20186">
        <ele>1675.23</ele>
        <time>2013-01-29T10:53:19Z</time>
      </trkpt>
      <trkpt lat="42.93586" lon="-0.2018">
        <ele>1673.79</ele>
        <time>2013-01-29T10:53:21Z</time>
      </trkpt>
      <trkpt lat="42.93597" lon="-0.20178">
        <ele>1669.47</ele>
        <time>2013-01-29T10:53:25Z</time>
      </trkpt>
      <trkpt lat="42.93606" lon="-0.20183">
        <ele>1668.99</ele>
        <time>2013-01-29T10:53:27Z</time>
      </trkpt>
      <trkpt lat="42.93618" lon="-0.20187">
        <ele>1667.06</ele>
        <time>2013-01-29T10:53:30Z</time>
      </trkpt>
      <trkpt lat="42.93632" lon="-0.2019">
        <ele>1664.66</ele>
        <time>2013-01-29T10:53:35Z</time>
      </trkpt>
      <trkpt lat="42.93634" lon="-0.2019">
        <ele>1664.18</ele>
        <time>2013-01-29T10:53:36Z</time>
      </trkpt>
      <trkpt lat="42.93636" lon="-0.20175">
        <ele>1660.33</ele>
        <time>2013-01-29T10:53:42Z</time>
      </trkpt>
      <trkpt lat="42.93638" lon="-0.20164">
        <ele>1656.01</ele>
        <time>2013-01-29T10:53:45Z</time>
      </trkpt>
      <trkpt lat="42.93642" lon="-0.20153">
        <ele>1651.2</ele>
        <time>2013-01-29T10:53:48Z</time>
      </trkpt>
      <trkpt lat="42.9364" lon="-0.20144">
        <ele>1646.88</ele>
        <time>2013-01-29T10:53:51Z</time>
      </trkpt>
      <trkpt lat="42.93638" lon="-0.20141">
        <ele>1646.88</ele>
        <time>2013-01-29T10:53:52Z</time>
      </trkpt>
      <trkpt lat="42.93642" lon="-0.20136">
        <ele>1644.47</ele>
        <time>2013-01-29T10:53:55Z</time>
      </trkpt>
      <trkpt lat="42.93641" lon="-0.20128">
        <ele>1642.55</ele>
        <time>2013-01-29T10:53:57Z</time>
      </trkpt>
      <trkpt lat="42.93647" lon="-0.20122">
        <ele>1638.7</ele>
        <time>2013-01-29T10:54:00Z</time>
      </trkpt>
      <trkpt lat="42.93651" lon="-0.20125">
        <ele>1638.22</ele>
        <time>2013-01-29T10:54:11Z</time>
      </trkpt>
      <trkpt lat="42.93657" lon="-0.20123">
        <ele>1636.3</ele>
        <time>2013-01-29T10:54:15Z</time>
      </trkpt>
      <trkpt lat="42.93657" lon="-0.20111">
        <ele>1633.42</ele>
        <time>2013-01-29T10:54:19Z</time>
      </trkpt>
      <trkpt lat="42.93662" lon="-0.20104">
        <ele>1630.05</ele>
        <time>2013-01-29T10:54:22Z</time>
      </trkpt>
      <trkpt lat="42.93656" lon="-0.20094">
        <ele>1627.17</ele>
        <time>2013-01-29T10:54:25Z</time>
      </trkpt>
      <trkpt lat="42.93652" lon="-0.20089">
        <ele>1626.21</ele>
        <time>2013-01-29T10:54:27Z</time>
      </trkpt>
      <trkpt lat="42.93647" lon="-0.20076">
        <ele>1622.36</ele>
        <time>2013-01-29T10:54:31Z</time>
      </trkpt>
      <trkpt lat="42.93643" lon="-0.20064">
        <ele>1619</ele>
        <time>2013-01-29T10:54:35Z</time>
      </trkpt>
      <trkpt lat="42.93638" lon="-0.20048">
        <ele>1616.11</ele>
        <time>2013-01-29T10:54:39Z</time>
      </trkpt>
      <trkpt lat="42.93636" lon="-0.20034">
        <ele>1612.75</ele>
        <time>2013-01-29T10:54:42Z</time>
      </trkpt>
      <trkpt lat="42.93636" lon="-0.20022">
        <ele>1609.38</ele>
        <time>2013-01-29T10:54:46Z</time>
      </trkpt>
      <trkpt lat="42.93635" lon="-0.20018">
        <ele>1608.42</ele>
        <time>2013-01-29T10:54:48Z</time>
      </trkpt>
      <trkpt lat="42.93636" lon="-0.20017">
        <ele>1606.98</ele>
        <time>2013-01-29T10:54:51Z</time>
      </trkpt>
      <trkpt lat="42.93645" lon="-0.20012">
        <ele>1603.62</ele>
        <time>2013-01-29T10:54:55Z</time>
      </trkpt>
      <trkpt lat="42.93651" lon="-0.20004">
        <ele>1599.29</ele>
        <time>2013-01-29T10:54:59Z</time>
      </trkpt>
      <trkpt lat="42.93653" lon="-0.20007">
        <ele>1597.85</ele>
        <time>2013-01-29T10:55:00Z</time>
      </trkpt>
      <trkpt lat="42.93655" lon="-0.20011">
        <ele>1595.93</ele>
        <time>2013-01-29T10:55:02Z</time>
      </trkpt>
      <trkpt lat="42.93659" lon="-0.20006">
        <ele>1593.04</ele>
        <time>2013-01-29T10:55:06Z</time>
      </trkpt>
      <trkpt lat="42.93665" lon="-0.20001">
        <ele>1588.24</ele>
        <time>2013-01-29T10:55:11Z</time>
      </trkpt>
      <trkpt lat="42.93665" lon="-0.20001">
        <ele>1587.75</ele>
        <time>2013-01-29T10:55:27Z</time>
      </trkpt>
      <trkpt lat="42.93666" lon="-0.20001">
        <ele>1587.75</ele>
        <time>2013-01-29T10:55:32Z</time>
      </trkpt>
      <trkpt lat="42.93673" lon="-0.20002">
        <ele>1584.87</ele>
        <time>2013-01-29T10:55:36Z</time>
      </trkpt>
      <trkpt lat="42.93676" lon="-0.19998">
        <ele>1580.54</ele>
        <time>2013-01-29T10:55:39Z</time>
      </trkpt>
      <trkpt lat="42.93678" lon="-0.19998">
        <ele>1580.54</ele>
        <time>2013-01-29T10:55:47Z</time>
      </trkpt>
      <trkpt lat="42.93688" lon="-0.20005">
        <ele>1577.18</ele>
        <time>2013-01-29T10:55:53Z</time>
      </trkpt>
      <trkpt lat="42.93691" lon="-0.20006">
        <ele>1575.74</ele>
        <time>2013-01-29T10:55:54Z</time>
      </trkpt>
      <trkpt lat="42.93695" lon="-0.19996">
        <ele>1571.41</ele>
        <time>2013-01-29T10:55:57Z</time>
      </trkpt>
      <trkpt lat="42.93694" lon="-0.19987">
        <ele>1568.53</ele>
        <time>2013-01-29T10:56:02Z</time>
      </trkpt>
      <trkpt lat="42.93701" lon="-0.19993">
        <ele>1565.64</ele>
        <time>2013-01-29T10:56:07Z</time>
      </trkpt>
      <trkpt lat="42.93706" lon="-0.19995">
        <ele>1564.2</ele>
        <time>2013-01-29T10:56:09Z</time>
      </trkpt>
      <trkpt lat="42.93709" lon="-0.1999">
        <ele>1560.84</ele>
        <time>2013-01-29T10:56:11Z</time>
      </trkpt>
      <trkpt lat="42.9372" lon="-0.19994">
        <ele>1555.55</ele>
        <time>2013-01-29T10:56:18Z</time>
      </trkpt>
      <trkpt lat="42.93731" lon="-0.20007">
        <ele>1552.19</ele>
        <time>2013-01-29T10:56:23Z</time>
      </trkpt>
      <trkpt lat="42.93741" lon="-0.20014">
        <ele>1548.82</ele>
        <time>2013-01-29T10:56:27Z</time>
      </trkpt>
      <trkpt lat="42.93749" lon="-0.20022">
        <ele>1545.94</ele>
        <time>2013-01-29T10:56:31Z</time>
      </trkpt>
      <trkpt lat="42.93755" lon="-0.20025">
        <ele>1544.01</ele>
        <time>2013-01-29T10:56:34Z</time>
      </trkpt>
      <trkpt lat="42.93759" lon="-0.20019">
        <ele>1540.17</ele>
        <time>2013-01-29T10:56:37Z</time>
      </trkpt>
      <trkpt lat="42.93758" lon="-0.20014">
        <ele>1537.29</ele>
        <time>2013-01-29T10:56:39Z</time>
      </trkpt>
      <trkpt lat="42.93765" lon="-0.20009">
        <ele>1533.44</ele>
        <time>2013-01-29T10:56:42Z</time>
      </trkpt>
      <trkpt lat="42.93765" lon="-0.20004">
        <ele>1532.48</ele>
        <time>2013-01-29T10:56:43Z</time>
      </trkpt>
      <trkpt lat="42.93773" lon="-0.2">
        <ele>1527.19</ele>
        <time>2013-01-29T10:56:46Z</time>
      </trkpt>
      <trkpt lat="42.93781" lon="-0.19995">
        <ele>1522.87</ele>
        <time>2013-01-29T10:56:49Z</time>
      </trkpt>
      <trkpt lat="42.93787" lon="-0.19993">
        <ele>1519.02</ele>
        <time>2013-01-29T10:56:52Z</time>
      </trkpt>
      <trkpt lat="42.93794" lon="-0.19994">
        <ele>1514.69</ele>
        <time>2013-01-29T10:56:55Z</time>
      </trkpt>
      <trkpt lat="42.93795" lon="-0.19993">
        <ele>1515.18</ele>
        <time>2013-01-29T10:56:56Z</time>
      </trkpt>
      <trkpt lat="42.93796" lon="-0.19991">
        <ele>1512.77</ele>
        <time>2013-01-29T10:56:59Z</time>
      </trkpt>
      <trkpt lat="42.93795" lon="-0.19992">
        <ele>1512.77</ele>
        <time>2013-01-29T10:57:06Z</time>
      </trkpt>
      <trkpt lat="42.93801" lon="-0.1999">
        <ele>1510.37</ele>
        <time>2013-01-29T10:57:10Z</time>
      </trkpt>
      <trkpt lat="42.93807" lon="-0.19981">
        <ele>1506.04</ele>
        <time>2013-01-29T10:57:14Z</time>
      </trkpt>
      <trkpt lat="42.93823" lon="-0.19977">
        <ele>1499.31</ele>
        <time>2013-01-29T10:57:20Z</time>
      </trkpt>
      <trkpt lat="42.93831" lon="-0.19972">
        <ele>1493.55</ele>
        <time>2013-01-29T10:57:23Z</time>
      </trkpt>
      <trkpt lat="42.93838" lon="-0.19967">
        <ele>1489.22</ele>
        <time>2013-01-29T10:57:26Z</time>
      </trkpt>
      <trkpt lat="42.93836" lon="-0.19964">
        <ele>1487.78</ele>
        <time>2013-01-29T10:57:35Z</time>
      </trkpt>
      <trkpt lat="42.93837" lon="-0.19965">
        <ele>1488.26</ele>
        <time>2013-01-29T10:57:47Z</time>
      </trkpt>
      <trkpt lat="42.93854" lon="-0.19974">
        <ele>1484.41</ele>
        <time>2013-01-29T10:57:52Z</time>
      </trkpt>
      <trkpt lat="42.93864" lon="-0.19985">
        <ele>1482.01</ele>
        <time>2013-01-29T10:58:01Z</time>
      </trkpt>
      <trkpt lat="42.93862" lon="-0.19985">
        <ele>1481.53</ele>
        <time>2013-01-29T10:58:26Z</time>
      </trkpt>
      <trkpt lat="42.93862" lon="-0.19989">
        <ele>1482.01</ele>
        <time>2013-01-29T10:58:48Z</time>
      </trkpt>
      <trkpt lat="42.93863" lon="-0.19986">
        <ele>1482.01</ele>
        <time>2013-01-29T10:59:13Z</time>
      </trkpt>
      <trkpt lat="42.93866" lon="-0.19983">
        <ele>1482.01</ele>
        <time>2013-01-29T10:59:24Z</time>
      </trkpt>
      <trkpt lat="42.93873" lon="-0.19989">
        <ele>1480.57</ele>
        <time>2013-01-29T10:59:28Z</time>
      </trkpt>
      <trkpt lat="42.93887" lon="-0.19999">
        <ele>1477.68</ele>
        <time>2013-01-29T10:59:32Z</time>
      </trkpt>
      <trkpt lat="42.93892" lon="-0.20002">
        <ele>1476.24</ele>
        <time>2013-01-29T10:59:33Z</time>
      </trkpt>
      <trkpt lat="42.93907" lon="-0.20006">
        <ele>1473.84</ele>
        <time>2013-01-29T10:59:36Z</time>
      </trkpt>
      <trkpt lat="42.93915" lon="-0.2">
        <ele>1472.4</ele>
        <time>2013-01-29T10:59:38Z</time>
      </trkpt>
      <trkpt lat="42.93931" lon="-0.19991">
        <ele>1467.11</ele>
        <time>2013-01-29T10:59:42Z</time>
      </trkpt>
      <trkpt lat="42.9394" lon="-0.19991">
        <ele>1465.19</ele>
        <time>2013-01-29T10:59:44Z</time>
      </trkpt>
      <trkpt lat="42.93952" lon="-0.19981">
        <ele>1461.34</ele>
        <time>2013-01-29T10:59:47Z</time>
      </trkpt>
      <trkpt lat="42.93978" lon="-0.19982">
        <ele>1456.05</ele>
        <time>2013-01-29T10:59:52Z</time>
      </trkpt>
      <trkpt lat="42.93997" lon="-0.19969">
        <ele>1451.73</ele>
        <time>2013-01-29T10:59:56Z</time>
      </trkpt>
      <trkpt lat="42.94001" lon="-0.1997">
        <ele>1451.73</ele>
        <time>2013-01-29T10:59:57Z</time>
      </trkpt>
      <trkpt lat="42.94007" lon="-0.19977">
        <ele>1451.73</ele>
        <time>2013-01-29T11:00:07Z</time>
      </trkpt>
      <trkpt lat="42.94006" lon="-0.19979">
        <ele>1451.25</ele>
        <time>2013-01-29T11:00:13Z</time>
      </trkpt>
      <trkpt lat="42.94019" lon="-0.19978">
        <ele>1449.32</ele>
        <time>2013-01-29T11:00:18Z</time>
      </trkpt>
      <trkpt lat="42.94035" lon="-0.19968">
        <ele>1445</ele>
        <time>2013-01-29T11:00:25Z</time>
      </trkpt>
      <trkpt lat="42.94037" lon="-0.19971">
        <ele>1445</ele>
        <time>2013-01-29T11:00:26Z</time>
      </trkpt>
      <trkpt lat="42.94048" lon="-0.19986">
        <ele>1442.6</ele>
        <time>2013-01-29T11:00:30Z</time>
      </trkpt>
      <trkpt lat="42.94057" lon="-0.19981">
        <ele>1438.75</ele>
        <time>2013-01-29T11:00:33Z</time>
      </trkpt>
      <trkpt lat="42.94061" lon="-0.19986">
        <ele>1436.35</ele>
        <time>2013-01-29T11:00:38Z</time>
      </trkpt>
      <trkpt lat="42.94062" lon="-0.19987">
        <ele>1436.35</ele>
        <time>2013-01-29T11:00:44Z</time>
      </trkpt>
      <trkpt lat="42.94066" lon="-0.19981">
        <ele>1434.42</ele>
        <time>2013-01-29T11:00:48Z</time>
      </trkpt>
      <trkpt lat="42.94066" lon="-0.19979">
        <ele>1434.42</ele>
        <time>2013-01-29T11:01:16Z</time>
      </trkpt>
      <trkpt lat="42.94065" lon="-0.19982">
        <ele>1434.42</ele>
        <time>2013-01-29T11:01:40Z</time>
      </trkpt>
      <trkpt lat="42.94065" lon="-0.19982">
        <ele>1434.42</ele>
        <time>2013-01-29T11:02:05Z</time>
      </trkpt>
      <trkpt lat="42.94064" lon="-0.1998">
        <ele>1433.94</ele>
        <time>2013-01-29T11:02:32Z</time>
      </trkpt>
      <trkpt lat="42.94064" lon="-0.19981">
        <ele>1433.94</ele>
        <time>2013-01-29T11:02:58Z</time>
      </trkpt>
      <trkpt lat="42.94065" lon="-0.19981">
        <ele>1433.94</ele>
        <time>2013-01-29T11:03:26Z</time>
      </trkpt>
      <trkpt lat="42.94065" lon="-0.19982">
        <ele>1433.94</ele>
        <time>2013-01-29T11:03:50Z</time>
      </trkpt>
      <trkpt lat="42.94064" lon="-0.19981">
        <ele>1434.42</ele>
        <time>2013-01-29T11:04:03Z</time>
      </trkpt>
      <trkpt lat="42.94078" lon="-0.19982">
        <ele>1431.06</ele>
        <time>2013-01-29T11:04:11Z</time>
      </trkpt>
      <trkpt lat="42.94082" lon="-0.1998">
        <ele>1431.06</ele>
        <time>2013-01-29T11:04:12Z</time>
      </trkpt>
      <trkpt lat="42.94087" lon="-0.19973">
        <ele>1429.14</ele>
        <time>2013-01-29T11:04:14Z</time>
      </trkpt>
      <trkpt lat="42.94092" lon="-0.19963">
        <ele>1428.18</ele>
        <time>2013-01-29T11:04:17Z</time>
      </trkpt>
      <trkpt lat="42.94105" lon="-0.19959">
        <ele>1425.29</ele>
        <time>2013-01-29T11:04:21Z</time>
      </trkpt>
      <trkpt lat="42.94113" lon="-0.19954">
        <ele>1423.85</ele>
        <time>2013-01-29T11:04:23Z</time>
      </trkpt>
      <trkpt lat="42.94137" lon="-0.19949">
        <ele>1420.97</ele>
        <time>2013-01-29T11:04:27Z</time>
      </trkpt>
      <trkpt lat="42.94151" lon="-0.19948">
        <ele>1418.56</ele>
        <time>2013-01-29T11:04:29Z</time>
      </trkpt>
      <trkpt lat="42.94161" lon="-0.19941">
        <ele>1417.6</ele>
        <time>2013-01-29T11:04:31Z</time>
      </trkpt>
      <trkpt lat="42.94176" lon="-0.19927">
        <ele>1417.12</ele>
        <time>2013-01-29T11:04:39Z</time>
      </trkpt>
      <trkpt lat="42.94179" lon="-0.19925">
        <ele>1416.64</ele>
        <time>2013-01-29T11:04:48Z</time>
      </trkpt>
      <trkpt lat="42.94179" lon="-0.19926">
        <ele>1417.12</ele>
        <time>2013-01-29T11:05:03Z</time>
      </trkpt>
      <trkpt lat="42.94179" lon="-0.19925">
        <ele>1416.64</ele>
        <time>2013-01-29T11:05:14Z</time>
      </trkpt>
      <trkpt lat="42.94179" lon="-0.19926">
        <ele>1413.28</ele>
        <time>2013-01-29T11:05:22Z</time>
      </trkpt>
      <trkpt lat="42.94178" lon="-0.19926">
        <ele>1415.2</ele>
        <time>2013-01-29T11:05:51Z</time>
      </trkpt>
      <trkpt lat="42.94179" lon="-0.19927">
        <ele>1415.2</ele>
        <time>2013-01-29T11:06:28Z</time>
      </trkpt>
      <trkpt lat="42.9418" lon="-0.19929">
        <ele>1414.72</ele>
        <time>2013-01-29T11:06:31Z</time>
      </trkpt>
      <trkpt lat="42.94179" lon="-0.19927">
        <ele>1414.72</ele>
        <time>2013-01-29T11:06:37Z</time>
      </trkpt>
      <trkpt lat="42.94179" lon="-0.19926">
        <ele>1414.72</ele>
        <time>2013-01-29T11:07:10Z</time>
      </trkpt>
      <trkpt lat="42.94179" lon="-0.19925">
        <ele>1414.72</ele>
        <time>2013-01-29T11:07:38Z</time>
      </trkpt>
      <trkpt lat="42.94178" lon="-0.19924">
        <ele>1414.72</ele>
        <time>2013-01-29T11:08:09Z</time>
      </trkpt>
      <trkpt lat="42.94179" lon="-0.19924">
        <ele>1413.76</ele>
        <time>2013-01-29T11:08:45Z</time>
      </trkpt>
      <trkpt lat="42.94179" lon="-0.19925">
        <ele>1414.72</ele>
        <time>2013-01-29T11:09:21Z</time>
      </trkpt>
      <trkpt lat="42.94179" lon="-0.19925">
        <ele>1413.76</ele>
        <time>2013-01-29T11:09:54Z</time>
      </trkpt>
      <trkpt lat="42.94179" lon="-0.19925">
        <ele>1413.76</ele>
        <time>2013-01-29T11:10:25Z</time>
      </trkpt>
      <trkpt lat="42.94179" lon="-0.19923">
        <ele>1414.24</ele>
        <time>2013-01-29T11:10:49Z</time>
      </trkpt>
      <trkpt lat="42.94179" lon="-0.19924">
        <ele>1413.76</ele>
        <time>2013-01-29T11:11:25Z</time>
      </trkpt>
      <trkpt lat="42.94179" lon="-0.19923">
        <ele>1413.76</ele>
        <time>2013-01-29T11:11:53Z</time>
      </trkpt>
      <trkpt lat="42.94179" lon="-0.19922">
        <ele>1413.28</ele>
        <time>2013-01-29T11:12:23Z</time>
      </trkpt>
      <trkpt lat="42.94179" lon="-0.19922">
        <ele>1413.76</ele>
        <time>2013-01-29T11:12:42Z</time>
      </trkpt>
      <trkpt lat="42.94179" lon="-0.19921">
        <ele>1413.76</ele>
        <time>2013-01-29T11:13:10Z</time>
      </trkpt>
      <trkpt lat="42.94179" lon="-0.1992">
        <ele>1414.24</ele>
        <time>2013-01-29T11:13:43Z</time>
      </trkpt>
      <trkpt lat="42.94179" lon="-0.19921">
        <ele>1414.24</ele>
        <time>2013-01-29T11:14:20Z</time>
      </trkpt>
      <trkpt lat="42.94179" lon="-0.19921">
        <ele>1413.76</ele>
        <time>2013-01-29T11:14:46Z</time>
      </trkpt>
      <trkpt lat="42.94178" lon="-0.19923">
        <ele>1414.72</ele>
        <time>2013-01-29T11:15:21Z</time>
      </trkpt>
      <trkpt lat="42.94178" lon="-0.19923">
        <ele>1414.24</ele>
        <time>2013-01-29T11:15:54Z</time>
      </trkpt>
      <trkpt lat="42.94179" lon="-0.19922">
        <ele>1414.72</ele>
        <time>2013-01-29T11:16:27Z</time>
      </trkpt>
      <trkpt lat="42.9418" lon="-0.19923">
        <ele>1414.72</ele>
        <time>2013-01-29T11:16:54Z</time>
      </trkpt>
      <trkpt lat="42.9418" lon="-0.19924">
        <ele>1414.72</ele>
        <time>2013-01-29T11:17:24Z</time>
      </trkpt>
      <trkpt lat="42.94179" lon="-0.19925">
        <ele>1414.72</ele>
        <time>2013-01-29T11:17:57Z</time>
      </trkpt>
      <trkpt lat="42.94179" lon="-0.19925">
        <ele>1414.24</ele>
        <time>2013-01-29T11:18:39Z</time>
      </trkpt>
      <trkpt lat="42.94179" lon="-0.19926">
        <ele>1414.72</ele>
        <time>2013-01-29T11:19:21Z</time>
      </trkpt>
      <trkpt lat="42.94178" lon="-0.19926">
        <ele>1414.24</ele>
        <time>2013-01-29T11:19:50Z</time>
      </trkpt>
      <trkpt lat="42.94179" lon="-0.19926">
        <ele>1414.24</ele>
        <time>2013-01-29T11:20:18Z</time>
      </trkpt>
      <trkpt lat="42.94179" lon="-0.19926">
        <ele>1414.24</ele>
        <time>2013-01-29T11:20:44Z</time>
      </trkpt>
      <trkpt lat="42.94179" lon="-0.19925">
        <ele>1414.24</ele>
        <time>2013-01-29T11:21:10Z</time>
      </trkpt>
      <trkpt lat="42.94179" lon="-0.19926">
        <ele>1414.24</ele>
        <time>2013-01-29T11:21:39Z</time>
      </trkpt>
      <trkpt lat="42.94179" lon="-0.19925">
        <ele>1414.24</ele>
        <time>2013-01-29T11:22:18Z</time>
      </trkpt>
      <trkpt lat="42.94178" lon="-0.19925">
        <ele>1414.24</ele>
        <time>2013-01-29T11:22:52Z</time>
      </trkpt>
      <trkpt lat="42.94179" lon="-0.19925">
        <ele>1413.76</ele>
        <time>2013-01-29T11:23:28Z</time>
      </trkpt>
      <trkpt lat="42.94179" lon="-0.19925">
        <ele>1413.76</ele>
        <time>2013-01-29T11:23:57Z</time>
      </trkpt>
      <trkpt lat="42.94179" lon="-0.19925">
        <ele>1413.76</ele>
        <time>2013-01-29T11:24:40Z</time>
      </trkpt>
      <trkpt lat="42.94178" lon="-0.19925">
        <ele>1413.76</ele>
        <time>2013-01-29T11:25:10Z</time>
      </trkpt>
      <trkpt lat="42.94179" lon="-0.19925">
        <ele>1413.76</ele>
        <time>2013-01-29T11:25:33Z</time>
      </trkpt>
      <trkpt lat="42.94179" lon="-0.19924">
        <ele>1414.24</ele>
        <time>2013-01-29T11:26:04Z</time>
      </trkpt>
      <trkpt lat="42.94179" lon="-0.19924">
        <ele>1413.28</ele>
        <time>2013-01-29T11:26:39Z</time>
      </trkpt>
      <trkpt lat="42.94179" lon="-0.19924">
        <ele>1413.76</ele>
        <time>2013-01-29T11:27:05Z</time>
      </trkpt>
      <trkpt lat="42.94178" lon="-0.19924">
        <ele>1413.76</ele>
        <time>2013-01-29T11:27:39Z</time>
      </trkpt>
      <trkpt lat="42.94178" lon="-0.19926">
        <ele>1413.76</ele>
        <time>2013-01-29T11:28:21Z</time>
      </trkpt>
      <trkpt lat="42.94178" lon="-0.19925">
        <ele>1413.76</ele>
        <time>2013-01-29T11:28:52Z</time>
      </trkpt>
      <trkpt lat="42.94178" lon="-0.19925">
        <ele>1413.28</ele>
        <time>2013-01-29T11:29:30Z</time>
      </trkpt>
      <trkpt lat="42.94179" lon="-0.19924">
        <ele>1413.76</ele>
        <time>2013-01-29T11:29:57Z</time>
      </trkpt>
      <trkpt lat="42.94179" lon="-0.19925">
        <ele>1413.28</ele>
        <time>2013-01-29T11:30:33Z</time>
      </trkpt>
      <trkpt lat="42.94179" lon="-0.19925">
        <ele>1413.76</ele>
        <time>2013-01-29T11:31:00Z</time>
      </trkpt>
      <trkpt lat="42.94179" lon="-0.19925">
        <ele>1413.76</ele>
        <time>2013-01-29T11:31:34Z</time>
      </trkpt>
      <trkpt lat="42.94179" lon="-0.19924">
        <ele>1413.76</ele>
        <time>2013-01-29T11:32:07Z</time>
      </trkpt>
      <trkpt lat="42.94178" lon="-0.19924">
        <ele>1413.76</ele>
        <time>2013-01-29T11:32:42Z</time>
      </trkpt>
      <trkpt lat="42.94179" lon="-0.19925">
        <ele>1413.76</ele>
        <time>2013-01-29T11:33:09Z</time>
      </trkpt>
      <trkpt lat="42.94178" lon="-0.19925">
        <ele>1413.76</ele>
        <time>2013-01-29T11:33:37Z</time>
      </trkpt>
      <trkpt lat="42.94178" lon="-0.19925">
        <ele>1413.76</ele>
        <time>2013-01-29T11:34:15Z</time>
      </trkpt>
      <trkpt lat="42.94178" lon="-0.19925">
        <ele>1413.76</ele>
        <time>2013-01-29T11:34:45Z</time>
      </trkpt>
      <trkpt lat="42.94178" lon="-0.19925">
        <ele>1413.76</ele>
        <time>2013-01-29T11:35:09Z</time>
      </trkpt>
      <trkpt lat="42.94178" lon="-0.19925">
        <ele>1414.24</ele>
        <time>2013-01-29T11:35:39Z</time>
      </trkpt>
      <trkpt lat="42.94179" lon="-0.19926">
        <ele>1414.24</ele>
        <time>2013-01-29T11:36:14Z</time>
      </trkpt>
      <trkpt lat="42.94179" lon="-0.19927">
        <ele>1413.76</ele>
        <time>2013-01-29T11:36:40Z</time>
      </trkpt>
      <trkpt lat="42.94179" lon="-0.19926">
        <ele>1414.24</ele>
        <time>2013-01-29T11:37:12Z</time>
      </trkpt>
      <trkpt lat="42.94179" lon="-0.19925">
        <ele>1413.76</ele>
        <time>2013-01-29T11:37:37Z</time>
      </trkpt>
      <trkpt lat="42.94179" lon="-0.19924">
        <ele>1414.24</ele>
        <time>2013-01-29T11:38:13Z</time>
      </trkpt>
      <trkpt lat="42.94179" lon="-0.19925">
        <ele>1414.24</ele>
        <time>2013-01-29T11:38:47Z</time>
      </trkpt>
      <trkpt lat="42.94179" lon="-0.19925">
        <ele>1414.72</ele>
        <time>2013-01-29T11:39:23Z</time>
      </trkpt>
      <trkpt lat="42.94178" lon="-0.19925">
        <ele>1413.76</ele>
        <time>2013-01-29T11:40:00Z</time>
      </trkpt>
      <trkpt lat="42.94179" lon="-0.19927">
        <ele>1414.24</ele>
        <time>2013-01-29T11:40:37Z</time>
      </trkpt>
      <trkpt lat="42.94179" lon="-0.19927">
        <ele>1414.24</ele>
        <time>2013-01-29T11:41:16Z</time>
      </trkpt>
      <trkpt lat="42.94178" lon="-0.19927">
        <ele>1414.24</ele>
        <time>2013-01-29T11:41:53Z</time>
      </trkpt>
      <trkpt lat="42.94179" lon="-0.19926">
        <ele>1414.24</ele>
        <time>2013-01-29T11:42:31Z</time>
      </trkpt>
      <trkpt lat="42.94179" lon="-0.19925">
        <ele>1414.72</ele>
        <time>2013-01-29T11:43:08Z</time>
      </trkpt>
      <trkpt lat="42.94179" lon="-0.19924">
        <ele>1414.72</ele>
        <time>2013-01-29T11:43:44Z</time>
      </trkpt>
      <trkpt lat="42.94179" lon="-0.19924">
        <ele>1414.72</ele>
        <time>2013-01-29T11:44:23Z</time>
      </trkpt>
      <trkpt lat="42.94179" lon="-0.19925">
        <ele>1414.72</ele>
        <time>2013-01-29T11:44:50Z</time>
      </trkpt>
      <trkpt lat="42.94179" lon="-0.19925">
        <ele>1414.72</ele>
        <time>2013-01-29T11:45:19Z</time>
      </trkpt>
      <trkpt lat="42.94179" lon="-0.19925">
        <ele>1414.72</ele>
        <time>2013-01-29T11:45:54Z</time>
      </trkpt>
      <trkpt lat="42.94179" lon="-0.19925">
        <ele>1414.24</ele>
        <time>2013-01-29T11:46:24Z</time>
      </trkpt>
      <trkpt lat="42.9418" lon="-0.19926">
        <ele>1414.72</ele>
        <time>2013-01-29T11:46:58Z</time>
      </trkpt>
      <trkpt lat="42.94179" lon="-0.19927">
        <ele>1414.24</ele>
        <time>2013-01-29T11:47:36Z</time>
      </trkpt>
      <trkpt lat="42.94179" lon="-0.19926">
        <ele>1414.72</ele>
        <time>2013-01-29T11:48:05Z</time>
      </trkpt>
      <trkpt lat="42.94179" lon="-0.19926">
        <ele>1414.72</ele>
        <time>2013-01-29T11:48:44Z</time>
      </trkpt>
      <trkpt lat="42.94179" lon="-0.19926">
        <ele>1414.24</ele>
        <time>2013-01-29T11:49:18Z</time>
      </trkpt>
      <trkpt lat="42.9418" lon="-0.19926">
        <ele>1414.72</ele>
        <time>2013-01-29T11:49:47Z</time>
      </trkpt>
      <trkpt lat="42.94179" lon="-0.19926">
        <ele>1414.72</ele>
        <time>2013-01-29T11:50:21Z</time>
      </trkpt>
      <trkpt lat="42.94179" lon="-0.19927">
        <ele>1414.24</ele>
        <time>2013-01-29T11:50:45Z</time>
      </trkpt>
      <trkpt lat="42.9418" lon="-0.19926">
        <ele>1414.24</ele>
        <time>2013-01-29T11:51:11Z</time>
      </trkpt>
      <trkpt lat="42.94179" lon="-0.19926">
        <ele>1414.24</ele>
        <time>2013-01-29T11:51:32Z</time>
      </trkpt>
      <trkpt lat="42.94179" lon="-0.19927">
        <ele>1414.24</ele>
        <time>2013-01-29T11:52:04Z</time>
      </trkpt>
      <trkpt lat="42.9418" lon="-0.19926">
        <ele>1414.24</ele>
        <time>2013-01-29T11:52:31Z</time>
      </trkpt>
      <trkpt lat="42.94179" lon="-0.19925">
        <ele>1414.72</ele>
        <time>2013-01-29T11:52:59Z</time>
      </trkpt>
      <trkpt lat="42.94178" lon="-0.19926">
        <ele>1413.76</ele>
        <time>2013-01-29T11:53:37Z</time>
      </trkpt>
      <trkpt lat="42.94178" lon="-0.19927">
        <ele>1414.24</ele>
        <time>2013-01-29T11:54:15Z</time>
      </trkpt>
      <trkpt lat="42.94178" lon="-0.19927">
        <ele>1414.72</ele>
        <time>2013-01-29T11:54:48Z</time>
      </trkpt>
      <trkpt lat="42.94179" lon="-0.19927">
        <ele>1414.24</ele>
        <time>2013-01-29T11:55:24Z</time>
      </trkpt>
      <trkpt lat="42.94178" lon="-0.19927">
        <ele>1413.76</ele>
        <time>2013-01-29T11:55:59Z</time>
      </trkpt>
      <trkpt lat="42.94178" lon="-0.19927">
        <ele>1414.72</ele>
        <time>2013-01-29T11:56:36Z</time>
      </trkpt>
      <trkpt lat="42.94179" lon="-0.19927">
        <ele>1414.72</ele>
        <time>2013-01-29T11:57:08Z</time>
      </trkpt>
      <trkpt lat="42.94179" lon="-0.19927">
        <ele>1414.24</ele>
        <time>2013-01-29T11:57:47Z</time>
      </trkpt>
      <trkpt lat="42.94179" lon="-0.19927">
        <ele>1414.24</ele>
        <time>2013-01-29T11:58:26Z</time>
      </trkpt>
      <trkpt lat="42.9418" lon="-0.19927">
        <ele>1414.24</ele>
        <time>2013-01-29T11:58:58Z</time>
      </trkpt>
      <trkpt lat="42.94179" lon="-0.19928">
        <ele>1414.72</ele>
        <time>2013-01-29T11:59:44Z</time>
      </trkpt>
      <trkpt lat="42.94179" lon="-0.19928">
        <ele>1414.24</ele>
        <time>2013-01-29T12:00:29Z</time>
      </trkpt>
      <trkpt lat="42.94179" lon="-0.19927">
        <ele>1413.76</ele>
        <time>2013-01-29T12:01:15Z</time>
      </trkpt>
      <trkpt lat="42.9418" lon="-0.19927">
        <ele>1414.24</ele>
        <time>2013-01-29T12:01:57Z</time>
      </trkpt>
      <trkpt lat="42.94179" lon="-0.19928">
        <ele>1414.24</ele>
        <time>2013-01-29T12:02:33Z</time>
      </trkpt>
      <trkpt lat="42.94179" lon="-0.19928">
        <ele>1414.24</ele>
        <time>2013-01-29T12:03:07Z</time>
      </trkpt>
      <trkpt lat="42.94179" lon="-0.19927">
        <ele>1414.24</ele>
        <time>2013-01-29T12:03:35Z</time>
      </trkpt>
      <trkpt lat="42.94178" lon="-0.19928">
        <ele>1413.76</ele>
        <time>2013-01-29T12:04:16Z</time>
      </trkpt>
      <trkpt lat="42.94178" lon="-0.19928">
        <ele>1414.24</ele>
        <time>2013-01-29T12:04:52Z</time>
      </trkpt>
      <trkpt lat="42.94178" lon="-0.19928">
        <ele>1414.24</ele>
        <time>2013-01-29T12:05:26Z</time>
      </trkpt>
      <trkpt lat="42.94178" lon="-0.19928">
        <ele>1414.72</ele>
        <time>2013-01-29T12:05:59Z</time>
      </trkpt>
      <trkpt lat="42.94178" lon="-0.19927">
        <ele>1414.72</ele>
        <time>2013-01-29T12:06:30Z</time>
      </trkpt>
      <trkpt lat="42.94179" lon="-0.19927">
        <ele>1414.24</ele>
        <time>2013-01-29T12:06:59Z</time>
      </trkpt>
      <trkpt lat="42.94178" lon="-0.19928">
        <ele>1414.24</ele>
        <time>2013-01-29T12:07:35Z</time>
      </trkpt>
      <trkpt lat="42.94178" lon="-0.19928">
        <ele>1414.24</ele>
        <time>2013-01-29T12:08:01Z</time>
      </trkpt>
      <trkpt lat="42.94178" lon="-0.19928">
        <ele>1414.72</ele>
        <time>2013-01-29T12:08:33Z</time>
      </trkpt>
      <trkpt lat="42.94178" lon="-0.19927">
        <ele>1414.24</ele>
        <time>2013-01-29T12:09:07Z</time>
      </trkpt>
      <trkpt lat="42.94178" lon="-0.19928">
        <ele>1414.24</ele>
        <time>2013-01-29T12:09:44Z</time>
      </trkpt>
      <trkpt lat="42.94178" lon="-0.19928">
        <ele>1414.24</ele>
        <time>2013-01-29T12:10:18Z</time>
      </trkpt>
      <trkpt lat="42.94178" lon="-0.19927">
        <ele>1414.72</ele>
        <time>2013-01-29T12:10:45Z</time>
      </trkpt>
      <trkpt lat="42.94179" lon="-0.19927">
        <ele>1414.24</ele>
        <time>2013-01-29T12:11:24Z</time>
      </trkpt>
      <trkpt lat="42.94178" lon="-0.19927">
        <ele>1414.24</ele>
        <time>2013-01-29T12:11:56Z</time>
      </trkpt>
      <trkpt lat="42.94178" lon="-0.19927">
        <ele>1414.72</ele>
        <time>2013-01-29T12:12:29Z</time>
      </trkpt>
      <trkpt lat="42.94178" lon="-0.19927">
        <ele>1414.24</ele>
        <time>2013-01-29T12:13:03Z</time>
      </trkpt>
      <trkpt lat="42.94179" lon="-0.19927">
        <ele>1414.24</ele>
        <time>2013-01-29T12:13:43Z</time>
      </trkpt>
      <trkpt lat="42.94179" lon="-0.19927">
        <ele>1414.72</ele>
        <time>2013-01-29T12:14:19Z</time>
      </trkpt>
      <trkpt lat="42.94179" lon="-0.19926">
        <ele>1414.24</ele>
        <time>2013-01-29T12:14:55Z</time>
      </trkpt>
      <trkpt lat="42.94179" lon="-0.19928">
        <ele>1414.24</ele>
        <time>2013-01-29T12:15:42Z</time>
      </trkpt>
      <trkpt lat="42.94178" lon="-0.19926">
        <ele>1414.72</ele>
        <time>2013-01-29T12:16:28Z</time>
      </trkpt>
      <trkpt lat="42.94178" lon="-0.19927">
        <ele>1414.24</ele>
        <time>2013-01-29T12:16:58Z</time>
      </trkpt>
      <trkpt lat="42.94179" lon="-0.19927">
        <ele>1414.24</ele>
        <time>2013-01-29T12:17:31Z</time>
      </trkpt>
      <trkpt lat="42.9418" lon="-0.19927">
        <ele>1414.24</ele>
        <time>2013-01-29T12:17:56Z</time>
      </trkpt>
      <trkpt lat="42.94179" lon="-0.19929">
        <ele>1413.76</ele>
        <time>2013-01-29T12:18:27Z</time>
      </trkpt>
      <trkpt lat="42.94177" lon="-0.19929">
        <ele>1413.76</ele>
        <time>2013-01-29T12:18:30Z</time>
      </trkpt>
      <trkpt lat="42.94178" lon="-0.19929">
        <ele>1415.68</ele>
        <time>2013-01-29T12:18:41Z</time>
      </trkpt>
      <trkpt lat="42.94178" lon="-0.1993">
        <ele>1415.2</ele>
        <time>2013-01-29T12:18:55Z</time>
      </trkpt>
      <trkpt lat="42.94178" lon="-0.19928">
        <ele>1415.2</ele>
        <time>2013-01-29T12:18:59Z</time>
      </trkpt>
      <trkpt lat="42.94179" lon="-0.19926">
        <ele>1414.72</ele>
        <time>2013-01-29T12:19:05Z</time>
      </trkpt>
      <trkpt lat="42.94177" lon="-0.19927">
        <ele>1414.72</ele>
        <time>2013-01-29T12:19:16Z</time>
      </trkpt>
      <trkpt lat="42.94177" lon="-0.19931">
        <ele>1415.2</ele>
        <time>2013-01-29T12:19:20Z</time>
      </trkpt>
      <trkpt lat="42.94176" lon="-0.19934">
        <ele>1415.2</ele>
        <time>2013-01-29T12:19:30Z</time>
      </trkpt>
      <trkpt lat="42.94176" lon="-0.19934">
        <ele>1415.68</ele>
        <time>2013-01-29T12:19:47Z</time>
      </trkpt>
      <trkpt lat="42.94177" lon="-0.19934">
        <ele>1415.68</ele>
        <time>2013-01-29T12:20:02Z</time>
      </trkpt>
      <trkpt lat="42.94176" lon="-0.19936">
        <ele>1415.68</ele>
        <time>2013-01-29T12:20:13Z</time>
      </trkpt>
      <trkpt lat="42.94177" lon="-0.19934">
        <ele>1415.68</ele>
        <time>2013-01-29T12:20:32Z</time>
      </trkpt>
      <trkpt lat="42.94176" lon="-0.19933">
        <ele>1415.68</ele>
        <time>2013-01-29T12:20:53Z</time>
      </trkpt>
      <trkpt lat="42.94174" lon="-0.19935">
        <ele>1415.2</ele>
        <time>2013-01-29T12:21:11Z</time>
      </trkpt>
      <trkpt lat="42.94171" lon="-0.19934">
        <ele>1415.68</ele>
        <time>2013-01-29T12:21:16Z</time>
      </trkpt>
      <trkpt lat="42.94168" lon="-0.19937">
        <ele>1416.16</ele>
        <time>2013-01-29T12:21:22Z</time>
      </trkpt>
      <trkpt lat="42.94156" lon="-0.19948">
        <ele>1415.68</ele>
        <time>2013-01-29T12:21:33Z</time>
      </trkpt>
      <trkpt lat="42.94146" lon="-0.1997">
        <ele>1414.24</ele>
        <time>2013-01-29T12:21:46Z</time>
      </trkpt>
      <trkpt lat="42.94145" lon="-0.19972">
        <ele>1413.76</ele>
        <time>2013-01-29T12:21:47Z</time>
      </trkpt>
      <trkpt lat="42.9414" lon="-0.19985">
        <ele>1410.87</ele>
        <time>2013-01-29T12:21:56Z</time>
      </trkpt>
      <trkpt lat="42.94139" lon="-0.19987">
        <ele>1410.87</ele>
        <time>2013-01-29T12:21:57Z</time>
      </trkpt>
      <trkpt lat="42.94128" lon="-0.20012">
        <ele>1407.51</ele>
        <time>2013-01-29T12:22:08Z</time>
      </trkpt>
      <trkpt lat="42.9414" lon="-0.20041">
        <ele>1404.62</ele>
        <time>2013-01-29T12:22:17Z</time>
      </trkpt>
      <trkpt lat="42.94155" lon="-0.20043">
        <ele>1400.78</ele>
        <time>2013-01-29T12:22:21Z</time>
      </trkpt>
      <trkpt lat="42.94169" lon="-0.20049">
        <ele>1395.97</ele>
        <time>2013-01-29T12:22:25Z</time>
      </trkpt>
      <trkpt lat="42.94173" lon="-0.2005">
        <ele>1395.97</ele>
        <time>2013-01-29T12:22:26Z</time>
      </trkpt>
      <trkpt lat="42.94183" lon="-0.20045">
        <ele>1393.57</ele>
        <time>2013-01-29T12:22:28Z</time>
      </trkpt>
      <trkpt lat="42.94194" lon="-0.20032">
        <ele>1392.61</ele>
        <time>2013-01-29T12:22:37Z</time>
      </trkpt>
      <trkpt lat="42.94191" lon="-0.20044">
        <ele>1391.65</ele>
        <time>2013-01-29T12:22:42Z</time>
      </trkpt>
      <trkpt lat="42.94183" lon="-0.20071">
        <ele>1388.28</ele>
        <time>2013-01-29T12:22:49Z</time>
      </trkpt>
      <trkpt lat="42.9419" lon="-0.2009">
        <ele>1386.84</ele>
        <time>2013-01-29T12:22:53Z</time>
      </trkpt>
      <trkpt lat="42.94203" lon="-0.2011">
        <ele>1384.44</ele>
        <time>2013-01-29T12:22:57Z</time>
      </trkpt>
      <trkpt lat="42.94207" lon="-0.20114">
        <ele>1383.96</ele>
        <time>2013-01-29T12:22:58Z</time>
      </trkpt>
      <trkpt lat="42.94218" lon="-0.20128">
        <ele>1382.03</ele>
        <time>2013-01-29T12:23:01Z</time>
      </trkpt>
      <trkpt lat="42.94221" lon="-0.20131">
        <ele>1382.03</ele>
        <time>2013-01-29T12:23:02Z</time>
      </trkpt>
      <trkpt lat="42.94248" lon="-0.20161">
        <ele>1378.19</ele>
        <time>2013-01-29T12:23:11Z</time>
      </trkpt>
      <trkpt lat="42.9425" lon="-0.20164">
        <ele>1377.71</ele>
        <time>2013-01-29T12:23:12Z</time>
      </trkpt>
      <trkpt lat="42.94253" lon="-0.20155">
        <ele>1373.86</ele>
        <time>2013-01-29T12:23:16Z</time>
      </trkpt>
      <trkpt lat="42.9425" lon="-0.20144">
        <ele>1372.9</ele>
        <time>2013-01-29T12:23:19Z</time>
      </trkpt>
      <trkpt lat="42.94262" lon="-0.20133">
        <ele>1368.57</ele>
        <time>2013-01-29T12:23:24Z</time>
      </trkpt>
      <trkpt lat="42.94276" lon="-0.20137">
        <ele>1364.73</ele>
        <time>2013-01-29T12:23:28Z</time>
      </trkpt>
      <trkpt lat="42.94278" lon="-0.20134">
        <ele>1364.73</ele>
        <time>2013-01-29T12:23:29Z</time>
      </trkpt>
      <trkpt lat="42.94284" lon="-0.20126">
        <ele>1363.77</ele>
        <time>2013-01-29T12:23:31Z</time>
      </trkpt>
      <trkpt lat="42.9429" lon="-0.20113">
        <ele>1362.33</ele>
        <time>2013-01-29T12:23:34Z</time>
      </trkpt>
      <trkpt lat="42.94302" lon="-0.20114">
        <ele>1359.44</ele>
        <time>2013-01-29T12:23:38Z</time>
      </trkpt>
      <trkpt lat="42.94306" lon="-0.20122">
        <ele>1358.48</ele>
        <time>2013-01-29T12:23:40Z</time>
      </trkpt>
      <trkpt lat="42.9432" lon="-0.20131">
        <ele>1355.12</ele>
        <time>2013-01-29T12:23:45Z</time>
      </trkpt>
      <trkpt lat="42.9433" lon="-0.20132">
        <ele>1351.75</ele>
        <time>2013-01-29T12:23:48Z</time>
      </trkpt>
      <trkpt lat="42.94338" lon="-0.20129">
        <ele>1347.91</ele>
        <time>2013-01-29T12:23:52Z</time>
      </trkpt>
      <trkpt lat="42.94339" lon="-0.20126">
        <ele>1347.91</ele>
        <time>2013-01-29T12:24:02Z</time>
      </trkpt>
      <trkpt lat="42.94353" lon="-0.20116">
        <ele>1342.62</ele>
        <time>2013-01-29T12:24:08Z</time>
      </trkpt>
      <trkpt lat="42.94352" lon="-0.20111">
        <ele>1342.14</ele>
        <time>2013-01-29T12:24:10Z</time>
      </trkpt>
      <trkpt lat="42.94359" lon="-0.20116">
        <ele>1340.22</ele>
        <time>2013-01-29T12:24:14Z</time>
      </trkpt>
      <trkpt lat="42.94361" lon="-0.20118">
        <ele>1339.73</ele>
        <time>2013-01-29T12:24:16Z</time>
      </trkpt>
      <trkpt lat="42.94367" lon="-0.20125">
        <ele>1337.81</ele>
        <time>2013-01-29T12:24:25Z</time>
      </trkpt>
      <trkpt lat="42.9438" lon="-0.20087">
        <ele>1334.45</ele>
        <time>2013-01-29T12:24:33Z</time>
      </trkpt>
      <trkpt lat="42.94382" lon="-0.20069">
        <ele>1332.04</ele>
        <time>2013-01-29T12:24:39Z</time>
      </trkpt>
      <trkpt lat="42.94383" lon="-0.20069">
        <ele>1332.04</ele>
        <time>2013-01-29T12:24:57Z</time>
      </trkpt>
      <trkpt lat="42.94386" lon="-0.20062">
        <ele>1331.08</ele>
        <time>2013-01-29T12:25:08Z</time>
      </trkpt>
      <trkpt lat="42.94387" lon="-0.20061">
        <ele>1330.6</ele>
        <time>2013-01-29T12:25:15Z</time>
      </trkpt>
      <trkpt lat="42.9439" lon="-0.20057">
        <ele>1330.6</ele>
        <time>2013-01-29T12:25:18Z</time>
      </trkpt>
      <trkpt lat="42.94395" lon="-0.20048">
        <ele>1329.16</ele>
        <time>2013-01-29T12:25:21Z</time>
      </trkpt>
      <trkpt lat="42.94402" lon="-0.20042">
        <ele>1328.2</ele>
        <time>2013-01-29T12:25:23Z</time>
      </trkpt>
      <trkpt lat="42.94419" lon="-0.20019">
        <ele>1324.35</ele>
        <time>2013-01-29T12:25:27Z</time>
      </trkpt>
      <trkpt lat="42.94439" lon="-0.2">
        <ele>1320.51</ele>
        <time>2013-01-29T12:25:32Z</time>
      </trkpt>
      <trkpt lat="42.94442" lon="-0.19999">
        <ele>1320.03</ele>
        <time>2013-01-29T12:25:33Z</time>
      </trkpt>
      <trkpt lat="42.94453" lon="-0.19992">
        <ele>1318.1</ele>
        <time>2013-01-29T12:25:36Z</time>
      </trkpt>
      <trkpt lat="42.94472" lon="-0.19973">
        <ele>1314.26</ele>
        <time>2013-01-29T12:25:42Z</time>
      </trkpt>
      <trkpt lat="42.94492" lon="-0.19942">
        <ele>1310.9</ele>
        <time>2013-01-29T12:25:52Z</time>
      </trkpt>
      <trkpt lat="42.94494" lon="-0.19936">
        <ele>1310.41</ele>
        <time>2013-01-29T12:25:53Z</time>
      </trkpt>
      <trkpt lat="42.94507" lon="-0.19921">
        <ele>1307.53</ele>
        <time>2013-01-29T12:25:56Z</time>
      </trkpt>
      <trkpt lat="42.94536" lon="-0.1991">
        <ele>1304.17</ele>
        <time>2013-01-29T12:26:01Z</time>
      </trkpt>
      <trkpt lat="42.9455" lon="-0.19911">
        <ele>1302.24</ele>
        <time>2013-01-29T12:26:04Z</time>
      </trkpt>
      <trkpt lat="42.94561" lon="-0.1993">
        <ele>1298.4</ele>
        <time>2013-01-29T12:26:08Z</time>
      </trkpt>
      <trkpt lat="42.94578" lon="-0.19942">
        <ele>1294.55</ele>
        <time>2013-01-29T12:26:12Z</time>
      </trkpt>
      <trkpt lat="42.94582" lon="-0.19944">
        <ele>1294.07</ele>
        <time>2013-01-29T12:26:13Z</time>
      </trkpt>
      <trkpt lat="42.94592" lon="-0.19944">
        <ele>1292.15</ele>
        <time>2013-01-29T12:26:20Z</time>
      </trkpt>
      <trkpt lat="42.94592" lon="-0.19945">
        <ele>1292.15</ele>
        <time>2013-01-29T12:26:40Z</time>
      </trkpt>
      <trkpt lat="42.94594" lon="-0.19946">
        <ele>1291.67</ele>
        <time>2013-01-29T12:26:52Z</time>
      </trkpt>
      <trkpt lat="42.94603" lon="-0.19949">
        <ele>1290.71</ele>
        <time>2013-01-29T12:26:56Z</time>
      </trkpt>
      <trkpt lat="42.94615" lon="-0.19952">
        <ele>1288.78</ele>
        <time>2013-01-29T12:26:59Z</time>
      </trkpt>
      <trkpt lat="42.94626" lon="-0.19954">
        <ele>1286.38</ele>
        <time>2013-01-29T12:27:02Z</time>
      </trkpt>
      <trkpt lat="42.94637" lon="-0.19956">
        <ele>1283.98</ele>
        <time>2013-01-29T12:27:05Z</time>
      </trkpt>
      <trkpt lat="42.94645" lon="-0.19946">
        <ele>1281.57</ele>
        <time>2013-01-29T12:27:09Z</time>
      </trkpt>
      <trkpt lat="42.94645" lon="-0.19929">
        <ele>1282.06</ele>
        <time>2013-01-29T12:27:14Z</time>
      </trkpt>
      <trkpt lat="42.94653" lon="-0.19909">
        <ele>1281.09</ele>
        <time>2013-01-29T12:27:23Z</time>
      </trkpt>
      <trkpt lat="42.94664" lon="-0.1989">
        <ele>1280.13</ele>
        <time>2013-01-29T12:27:33Z</time>
      </trkpt>
      <trkpt lat="42.94671" lon="-0.19858">
        <ele>1277.73</ele>
        <time>2013-01-29T12:27:42Z</time>
      </trkpt>
      <trkpt lat="42.94671" lon="-0.19853">
        <ele>1276.77</ele>
        <time>2013-01-29T12:27:49Z</time>
      </trkpt>
      <trkpt lat="42.94685" lon="-0.19855">
        <ele>1273.88</ele>
        <time>2013-01-29T12:27:54Z</time>
      </trkpt>
      <trkpt lat="42.94688" lon="-0.19859">
        <ele>1273.4</ele>
        <time>2013-01-29T12:27:55Z</time>
      </trkpt>
      <trkpt lat="42.94696" lon="-0.19875">
        <ele>1269.08</ele>
        <time>2013-01-29T12:27:59Z</time>
      </trkpt>
      <trkpt lat="42.94708" lon="-0.19891">
        <ele>1267.16</ele>
        <time>2013-01-29T12:28:07Z</time>
      </trkpt>
      <trkpt lat="42.94713" lon="-0.19903">
        <ele>1265.23</ele>
        <time>2013-01-29T12:28:10Z</time>
      </trkpt>
      <trkpt lat="42.94718" lon="-0.19902">
        <ele>1262.35</ele>
        <time>2013-01-29T12:28:16Z</time>
      </trkpt>
      <trkpt lat="42.94719" lon="-0.19894">
        <ele>1261.87</ele>
        <time>2013-01-29T12:28:36Z</time>
      </trkpt>
      <trkpt lat="42.94721" lon="-0.19883">
        <ele>1260.91</ele>
        <time>2013-01-29T12:28:40Z</time>
      </trkpt>
      <trkpt lat="42.94731" lon="-0.1989">
        <ele>1257.06</ele>
        <time>2013-01-29T12:28:45Z</time>
      </trkpt>
      <trkpt lat="42.94734" lon="-0.19891">
        <ele>1257.54</ele>
        <time>2013-01-29T12:28:57Z</time>
      </trkpt>
      <trkpt lat="42.94734" lon="-0.19888">
        <ele>1256.58</ele>
        <time>2013-01-29T12:29:24Z</time>
      </trkpt>
      <trkpt lat="42.94735" lon="-0.19887">
        <ele>1256.1</ele>
        <time>2013-01-29T12:29:27Z</time>
      </trkpt>
      <trkpt lat="42.94752" lon="-0.19897">
        <ele>1252.25</ele>
        <time>2013-01-29T12:29:33Z</time>
      </trkpt>
      <trkpt lat="42.9476" lon="-0.19907">
        <ele>1250.33</ele>
        <time>2013-01-29T12:29:37Z</time>
      </trkpt>
      <trkpt lat="42.94767" lon="-0.19918">
        <ele>1248.41</ele>
        <time>2013-01-29T12:29:40Z</time>
      </trkpt>
      <trkpt lat="42.94768" lon="-0.19924">
        <ele>1248.41</ele>
        <time>2013-01-29T12:29:41Z</time>
      </trkpt>
      <trkpt lat="42.94776" lon="-0.19954">
        <ele>1244.56</ele>
        <time>2013-01-29T12:29:47Z</time>
      </trkpt>
      <trkpt lat="42.94796" lon="-0.19972">
        <ele>1241.68</ele>
        <time>2013-01-29T12:29:55Z</time>
      </trkpt>
      <trkpt lat="42.948" lon="-0.19975">
        <ele>1241.2</ele>
        <time>2013-01-29T12:29:56Z</time>
      </trkpt>
      <trkpt lat="42.94814" lon="-0.19982">
        <ele>1239.28</ele>
        <time>2013-01-29T12:29:59Z</time>
      </trkpt>
      <trkpt lat="42.94832" lon="-0.19983">
        <ele>1235.91</ele>
        <time>2013-01-29T12:30:03Z</time>
      </trkpt>
      <trkpt lat="42.9486" lon="-0.19967">
        <ele>1231.59</ele>
        <time>2013-01-29T12:30:09Z</time>
      </trkpt>
      <trkpt lat="42.94869" lon="-0.19961">
        <ele>1230.14</ele>
        <time>2013-01-29T12:30:11Z</time>
      </trkpt>
      <trkpt lat="42.94889" lon="-0.19954">
        <ele>1227.26</ele>
        <time>2013-01-29T12:30:15Z</time>
      </trkpt>
      <trkpt lat="42.9493" lon="-0.19949">
        <ele>1225.34</ele>
        <time>2013-01-29T12:30:27Z</time>
      </trkpt>
      <trkpt lat="42.9496" lon="-0.19945">
        <ele>1222.93</ele>
        <time>2013-01-29T12:30:39Z</time>
      </trkpt>
      <trkpt lat="42.94986" lon="-0.19943">
        <ele>1220.05</ele>
        <time>2013-01-29T12:30:48Z</time>
      </trkpt>
      <trkpt lat="42.95002" lon="-0.19945">
        <ele>1218.13</ele>
        <time>2013-01-29T12:30:53Z</time>
      </trkpt>
      <trkpt lat="42.95026" lon="-0.19945">
        <ele>1214.28</ele>
        <time>2013-01-29T12:31:00Z</time>
      </trkpt>
      <trkpt lat="42.9505" lon="-0.19945">
        <ele>1211.4</ele>
        <time>2013-01-29T12:31:05Z</time>
      </trkpt>
      <trkpt lat="42.95066" lon="-0.19947">
        <ele>1209.96</ele>
        <time>2013-01-29T12:31:09Z</time>
      </trkpt>
      <trkpt lat="42.95107" lon="-0.19958">
        <ele>1206.59</ele>
        <time>2013-01-29T12:31:22Z</time>
      </trkpt>
      <trkpt lat="42.95133" lon="-0.19963">
        <ele>1204.19</ele>
        <time>2013-01-29T12:31:32Z</time>
      </trkpt>
      <trkpt lat="42.95151" lon="-0.19957">
        <ele>1202.27</ele>
        <time>2013-01-29T12:31:44Z</time>
      </trkpt>
      <trkpt lat="42.95167" lon="-0.19925">
        <ele>1198.9</ele>
        <time>2013-01-29T12:31:53Z</time>
      </trkpt>
      <trkpt lat="42.95173" lon="-0.19903">
        <ele>1197.46</ele>
        <time>2013-01-29T12:31:58Z</time>
      </trkpt>
      <trkpt lat="42.95182" lon="-0.19887">
        <ele>1196.5</ele>
        <time>2013-01-29T12:32:04Z</time>
      </trkpt>
      <trkpt lat="42.95186" lon="-0.19883">
        <ele>1197.46</ele>
        <time>2013-01-29T12:32:15Z</time>
      </trkpt>
      <trkpt lat="42.95187" lon="-0.19886">
        <ele>1196.5</ele>
        <time>2013-01-29T12:32:39Z</time>
      </trkpt>
      <trkpt lat="42.95187" lon="-0.19886">
        <ele>1196.98</ele>
        <time>2013-01-29T12:32:57Z</time>
      </trkpt>
      <trkpt lat="42.95183" lon="-0.19881">
        <ele>1196.98</ele>
        <time>2013-01-29T12:33:19Z</time>
      </trkpt>
      <trkpt lat="42.95179" lon="-0.19872">
        <ele>1196.02</ele>
        <time>2013-01-29T12:33:32Z</time>
      </trkpt>
      <trkpt lat="42.95177" lon="-0.19856">
        <ele>1194.58</ele>
        <time>2013-01-29T12:33:42Z</time>
      </trkpt>
      <trkpt lat="42.95188" lon="-0.19843">
        <ele>1192.65</ele>
        <time>2013-01-29T12:33:58Z</time>
      </trkpt>
      <trkpt lat="42.95188" lon="-0.19841">
        <ele>1192.17</ele>
        <time>2013-01-29T12:34:01Z</time>
      </trkpt>
      <trkpt lat="42.95189" lon="-0.19834">
        <ele>1191.69</ele>
        <time>2013-01-29T12:34:16Z</time>
      </trkpt>
      <trkpt lat="42.95185" lon="-0.1983">
        <ele>1191.21</ele>
        <time>2013-01-29T12:34:25Z</time>
      </trkpt>
      <trkpt lat="42.95175" lon="-0.19824">
        <ele>1190.25</ele>
        <time>2013-01-29T12:34:37Z</time>
      </trkpt>
      <trkpt lat="42.95173" lon="-0.19821">
        <ele>1190.25</ele>
        <time>2013-01-29T12:34:57Z</time>
      </trkpt>
      <trkpt lat="42.95171" lon="-0.19822">
        <ele>1189.77</ele>
        <time>2013-01-29T12:35:15Z</time>
      </trkpt>
      <trkpt lat="42.95172" lon="-0.19823">
        <ele>1189.77</ele>
        <time>2013-01-29T12:35:38Z</time>
      </trkpt>
      <trkpt lat="42.95171" lon="-0.19823">
        <ele>1189.29</ele>
        <time>2013-01-29T12:35:53Z</time>
      </trkpt>
      <trkpt lat="42.95166" lon="-0.19823">
        <ele>1189.77</ele>
        <time>2013-01-29T12:36:07Z</time>
      </trkpt>
      <trkpt lat="42.95165" lon="-0.19823">
        <ele>1189.77</ele>
        <time>2013-01-29T12:36:10Z</time>
      </trkpt>
      <trkpt lat="42.95151" lon="-0.19808">
        <ele>1186.4</ele>
        <time>2013-01-29T12:36:17Z</time>
      </trkpt>
      <trkpt lat="42.95158" lon="-0.19794">
        <ele>1184</ele>
        <time>2013-01-29T12:36:20Z</time>
      </trkpt>
      <trkpt lat="42.95162" lon="-0.19777">
        <ele>1180.64</ele>
        <time>2013-01-29T12:36:25Z</time>
      </trkpt>
      <trkpt lat="42.95162" lon="-0.19774">
        <ele>1180.64</ele>
        <time>2013-01-29T12:36:26Z</time>
      </trkpt>
      <trkpt lat="42.9516" lon="-0.1977">
        <ele>1179.67</ele>
        <time>2013-01-29T12:36:27Z</time>
      </trkpt>
      <trkpt lat="42.95157" lon="-0.19744">
        <ele>1174.39</ele>
        <time>2013-01-29T12:36:32Z</time>
      </trkpt>
      <trkpt lat="42.95157" lon="-0.19741">
        <ele>1173.91</ele>
        <time>2013-01-29T12:36:33Z</time>
      </trkpt>
      <trkpt lat="42.95159" lon="-0.19731">
        <ele>1172.95</ele>
        <time>2013-01-29T12:36:36Z</time>
      </trkpt>
      <trkpt lat="42.9516" lon="-0.19728">
        <ele>1171.98</ele>
        <time>2013-01-29T12:36:37Z</time>
      </trkpt>
      <trkpt lat="42.95163" lon="-0.19723">
        <ele>1171.02</ele>
        <time>2013-01-29T12:36:50Z</time>
      </trkpt>
      <trkpt lat="42.95162" lon="-0.19722">
        <ele>1171.5</ele>
        <time>2013-01-29T12:37:07Z</time>
      </trkpt>
      <trkpt lat="42.95162" lon="-0.19721">
        <ele>1171.02</ele>
        <time>2013-01-29T12:37:08Z</time>
      </trkpt>
      <trkpt lat="42.95152" lon="-0.19715">
        <ele>1168.62</ele>
        <time>2013-01-29T12:37:14Z</time>
      </trkpt>
      <trkpt lat="42.95146" lon="-0.1972">
        <ele>1166.7</ele>
        <time>2013-01-29T12:37:19Z</time>
      </trkpt>
      <trkpt lat="42.95142" lon="-0.1972">
        <ele>1165.74</ele>
        <time>2013-01-29T12:37:22Z</time>
      </trkpt>
      <trkpt lat="42.95135" lon="-0.19706">
        <ele>1164.77</ele>
        <time>2013-01-29T12:37:29Z</time>
      </trkpt>
      <trkpt lat="42.95141" lon="-0.19674">
        <ele>1162.85</ele>
        <time>2013-01-29T12:37:35Z</time>
      </trkpt>
      <trkpt lat="42.95155" lon="-0.19641">
        <ele>1161.41</ele>
        <time>2013-01-29T12:37:45Z</time>
      </trkpt>
      <trkpt lat="42.95163" lon="-0.19617">
        <ele>1161.89</ele>
        <time>2013-01-29T12:37:57Z</time>
      </trkpt>
      <trkpt lat="42.95169" lon="-0.19599">
        <ele>1161.89</ele>
        <time>2013-01-29T12:38:11Z</time>
      </trkpt>
      <trkpt lat="42.95171" lon="-0.19593">
        <ele>1161.89</ele>
        <time>2013-01-29T12:38:21Z</time>
      </trkpt>
      <trkpt lat="42.9517" lon="-0.19588">
        <ele>1161.41</ele>
        <time>2013-01-29T12:38:32Z</time>
      </trkpt>
      <trkpt lat="42.95168" lon="-0.19583">
        <ele>1162.85</ele>
        <time>2013-01-29T12:38:43Z</time>
      </trkpt>
    </trkseg>
  </trk>
</gpx>